<?xml version="1.0" encoding="UTF-8" standalone="no" ?>
<gpx xmlns="http://www.topografix.com/GPX/1/1" xmlns:xsi="http://www.w3.org/2001/XMLSchema-instance" xsi:schemaLocation="http://www.topografix.com/GPX/1/1 http://www.topografix.com/GPX/1/1/gpx.xsd" version="1.1" creator="VisuGPX - https://www.visugpx.com">
  <metadata>
    <name>Renage _ vtt</name>
    <desc><![CDATA[Renage montée par la route et descente par les chemins
Renage
Renage
Renage]]></desc>
  </metadata>
  <trk>
    <name><![CDATA[OR-5748034--Renage:renage-maison-renage]]></name>
    <trkseg>
      <trkpt lat="45.33303" lon="5.48641">
        <ele>323</ele>
        <time>2017-03-26T09:56:41Z</time>
      </trkpt>
      <trkpt lat="45.33286" lon="5.48488">
        <ele>324</ele>
        <time>2017-03-26T09:58:41Z</time>
      </trkpt>
      <trkpt lat="45.33284" lon="5.48479">
        <ele>325</ele>
        <time>2017-03-26T10:00:41Z</time>
      </trkpt>
      <trkpt lat="45.33283" lon="5.48473">
        <ele>325</ele>
        <time>2017-03-26T10:02:41Z</time>
      </trkpt>
      <trkpt lat="45.3328" lon="5.48466">
        <ele>325</ele>
        <time>2017-03-26T10:04:41Z</time>
      </trkpt>
      <trkpt lat="45.33274" lon="5.48453">
        <ele>325</ele>
        <time>2017-03-26T10:06:41Z</time>
      </trkpt>
      <trkpt lat="45.33274" lon="5.48453">
        <ele>325</ele>
        <time>2017-03-26T10:08:41Z</time>
      </trkpt>
      <trkpt lat="45.33287" lon="5.48414">
        <ele>326</ele>
        <time>2017-03-26T10:10:41Z</time>
      </trkpt>
      <trkpt lat="45.33297" lon="5.48389">
        <ele>328</ele>
        <time>2017-03-26T10:12:41Z</time>
      </trkpt>
      <trkpt lat="45.33302" lon="5.48381">
        <ele>328</ele>
        <time>2017-03-26T10:14:41Z</time>
      </trkpt>
      <trkpt lat="45.33312" lon="5.48368">
        <ele>328</ele>
        <time>2017-03-26T10:16:41Z</time>
      </trkpt>
      <trkpt lat="45.33324" lon="5.48357">
        <ele>327</ele>
        <time>2017-03-26T10:18:41Z</time>
      </trkpt>
      <trkpt lat="45.33344" lon="5.48346">
        <ele>327</ele>
        <time>2017-03-26T10:20:41Z</time>
      </trkpt>
      <trkpt lat="45.3336" lon="5.48342">
        <ele>327</ele>
        <time>2017-03-26T10:22:41Z</time>
      </trkpt>
      <trkpt lat="45.33372" lon="5.4834">
        <ele>327</ele>
        <time>2017-03-26T10:24:41Z</time>
      </trkpt>
      <trkpt lat="45.33392" lon="5.48339">
        <ele>327</ele>
        <time>2017-03-26T10:26:41Z</time>
      </trkpt>
      <trkpt lat="45.33429" lon="5.48339">
        <ele>327</ele>
        <time>2017-03-26T10:28:41Z</time>
      </trkpt>
      <trkpt lat="45.3345" lon="5.48341">
        <ele>326</ele>
        <time>2017-03-26T10:30:41Z</time>
      </trkpt>
      <trkpt lat="45.33466" lon="5.48343">
        <ele>326</ele>
        <time>2017-03-26T10:32:41Z</time>
      </trkpt>
      <trkpt lat="45.33473" lon="5.48343">
        <ele>325</ele>
        <time>2017-03-26T10:34:41Z</time>
      </trkpt>
      <trkpt lat="45.33475" lon="5.48343">
        <ele>325</ele>
        <time>2017-03-26T10:36:41Z</time>
      </trkpt>
      <trkpt lat="45.33487" lon="5.48339">
        <ele>325</ele>
        <time>2017-03-26T10:38:41Z</time>
      </trkpt>
      <trkpt lat="45.33497" lon="5.48335">
        <ele>325</ele>
        <time>2017-03-26T10:40:41Z</time>
      </trkpt>
      <trkpt lat="45.33507" lon="5.48329">
        <ele>325</ele>
        <time>2017-03-26T10:42:41Z</time>
      </trkpt>
      <trkpt lat="45.33539" lon="5.48307">
        <ele>326</ele>
        <time>2017-03-26T10:44:41Z</time>
      </trkpt>
      <trkpt lat="45.33551" lon="5.48299">
        <ele>327</ele>
        <time>2017-03-26T10:46:41Z</time>
      </trkpt>
      <trkpt lat="45.33557" lon="5.48296">
        <ele>327</ele>
        <time>2017-03-26T10:48:41Z</time>
      </trkpt>
      <trkpt lat="45.33563" lon="5.48295">
        <ele>327</ele>
        <time>2017-03-26T10:50:41Z</time>
      </trkpt>
      <trkpt lat="45.33568" lon="5.48295">
        <ele>327</ele>
        <time>2017-03-26T10:52:41Z</time>
      </trkpt>
      <trkpt lat="45.33577" lon="5.48296">
        <ele>327</ele>
        <time>2017-03-26T10:54:41Z</time>
      </trkpt>
      <trkpt lat="45.33578" lon="5.48297">
        <ele>327</ele>
        <time>2017-03-26T10:56:41Z</time>
      </trkpt>
      <trkpt lat="45.33634" lon="5.4832">
        <ele>327</ele>
        <time>2017-03-26T10:58:41Z</time>
      </trkpt>
      <trkpt lat="45.33639" lon="5.48322">
        <ele>327</ele>
        <time>2017-03-26T11:00:41Z</time>
      </trkpt>
      <trkpt lat="45.33641" lon="5.48324">
        <ele>327</ele>
        <time>2017-03-26T11:02:41Z</time>
      </trkpt>
      <trkpt lat="45.33643" lon="5.48325">
        <ele>327</ele>
        <time>2017-03-26T11:04:41Z</time>
      </trkpt>
      <trkpt lat="45.33647" lon="5.48329">
        <ele>327</ele>
        <time>2017-03-26T11:06:41Z</time>
      </trkpt>
      <trkpt lat="45.33652" lon="5.48338">
        <ele>327</ele>
        <time>2017-03-26T11:08:41Z</time>
      </trkpt>
      <trkpt lat="45.33658" lon="5.48341">
        <ele>327</ele>
        <time>2017-03-26T11:10:41Z</time>
      </trkpt>
      <trkpt lat="45.33659" lon="5.48346">
        <ele>327</ele>
        <time>2017-03-26T11:12:41Z</time>
      </trkpt>
      <trkpt lat="45.33661" lon="5.48348">
        <ele>327</ele>
        <time>2017-03-26T11:14:41Z</time>
      </trkpt>
      <trkpt lat="45.33662" lon="5.48349">
        <ele>327</ele>
        <time>2017-03-26T11:16:41Z</time>
      </trkpt>
      <trkpt lat="45.33663" lon="5.48349">
        <ele>327</ele>
        <time>2017-03-26T11:18:41Z</time>
      </trkpt>
      <trkpt lat="45.33665" lon="5.4835">
        <ele>327</ele>
        <time>2017-03-26T11:20:41Z</time>
      </trkpt>
      <trkpt lat="45.33666" lon="5.48349">
        <ele>327</ele>
        <time>2017-03-26T11:22:41Z</time>
      </trkpt>
      <trkpt lat="45.33667" lon="5.48349">
        <ele>327</ele>
        <time>2017-03-26T11:24:41Z</time>
      </trkpt>
      <trkpt lat="45.33668" lon="5.48348">
        <ele>327</ele>
        <time>2017-03-26T11:26:41Z</time>
      </trkpt>
      <trkpt lat="45.33669" lon="5.48347">
        <ele>327</ele>
        <time>2017-03-26T11:28:41Z</time>
      </trkpt>
      <trkpt lat="45.3367" lon="5.48345">
        <ele>327</ele>
        <time>2017-03-26T11:30:41Z</time>
      </trkpt>
      <trkpt lat="45.3367" lon="5.48344">
        <ele>327</ele>
        <time>2017-03-26T11:32:41Z</time>
      </trkpt>
      <trkpt lat="45.3367" lon="5.48342">
        <ele>327</ele>
        <time>2017-03-26T11:34:41Z</time>
      </trkpt>
      <trkpt lat="45.33672" lon="5.48341">
        <ele>327</ele>
        <time>2017-03-26T11:36:41Z</time>
      </trkpt>
      <trkpt lat="45.33674" lon="5.48339">
        <ele>328</ele>
        <time>2017-03-26T11:38:41Z</time>
      </trkpt>
      <trkpt lat="45.33677" lon="5.48337">
        <ele>328</ele>
        <time>2017-03-26T11:40:41Z</time>
      </trkpt>
      <trkpt lat="45.3368" lon="5.48335">
        <ele>328</ele>
        <time>2017-03-26T11:42:41Z</time>
      </trkpt>
      <trkpt lat="45.33683" lon="5.48333">
        <ele>328</ele>
        <time>2017-03-26T11:44:41Z</time>
      </trkpt>
      <trkpt lat="45.33684" lon="5.48333">
        <ele>328</ele>
        <time>2017-03-26T11:46:41Z</time>
      </trkpt>
      <trkpt lat="45.33688" lon="5.48333">
        <ele>329</ele>
        <time>2017-03-26T11:48:41Z</time>
      </trkpt>
      <trkpt lat="45.33692" lon="5.48332">
        <ele>329</ele>
        <time>2017-03-26T11:50:41Z</time>
      </trkpt>
      <trkpt lat="45.337" lon="5.48335">
        <ele>330</ele>
        <time>2017-03-26T11:52:41Z</time>
      </trkpt>
      <trkpt lat="45.33707" lon="5.48338">
        <ele>330</ele>
        <time>2017-03-26T11:54:41Z</time>
      </trkpt>
      <trkpt lat="45.33709" lon="5.48341">
        <ele>330</ele>
        <time>2017-03-26T11:56:41Z</time>
      </trkpt>
      <trkpt lat="45.33709" lon="5.48341">
        <ele>330</ele>
        <time>2017-03-26T11:58:41Z</time>
      </trkpt>
      <trkpt lat="45.3373" lon="5.48334">
        <ele>332</ele>
        <time>2017-03-26T12:00:41Z</time>
      </trkpt>
      <trkpt lat="45.33749" lon="5.48333">
        <ele>334</ele>
        <time>2017-03-26T12:02:41Z</time>
      </trkpt>
      <trkpt lat="45.33757" lon="5.48336">
        <ele>335</ele>
        <time>2017-03-26T12:04:41Z</time>
      </trkpt>
      <trkpt lat="45.3377" lon="5.48342">
        <ele>336</ele>
        <time>2017-03-26T12:06:41Z</time>
      </trkpt>
      <trkpt lat="45.33779" lon="5.48349">
        <ele>337</ele>
        <time>2017-03-26T12:08:41Z</time>
      </trkpt>
      <trkpt lat="45.33787" lon="5.48355">
        <ele>338</ele>
        <time>2017-03-26T12:10:41Z</time>
      </trkpt>
      <trkpt lat="45.33795" lon="5.48361">
        <ele>338</ele>
        <time>2017-03-26T12:12:41Z</time>
      </trkpt>
      <trkpt lat="45.33808" lon="5.48373">
        <ele>338</ele>
        <time>2017-03-26T12:14:41Z</time>
      </trkpt>
      <trkpt lat="45.33825" lon="5.48383">
        <ele>339</ele>
        <time>2017-03-26T12:16:41Z</time>
      </trkpt>
      <trkpt lat="45.3384" lon="5.48393">
        <ele>339</ele>
        <time>2017-03-26T12:18:41Z</time>
      </trkpt>
      <trkpt lat="45.3384" lon="5.48393">
        <ele>339</ele>
        <time>2017-03-26T12:20:41Z</time>
      </trkpt>
      <trkpt lat="45.33842" lon="5.48379">
        <ele>341</ele>
        <time>2017-03-26T12:22:41Z</time>
      </trkpt>
      <trkpt lat="45.33848" lon="5.48342">
        <ele>345</ele>
        <time>2017-03-26T12:24:41Z</time>
      </trkpt>
      <trkpt lat="45.33854" lon="5.48297">
        <ele>351</ele>
        <time>2017-03-26T12:26:41Z</time>
      </trkpt>
      <trkpt lat="45.33859" lon="5.48269">
        <ele>354</ele>
        <time>2017-03-26T12:28:41Z</time>
      </trkpt>
      <trkpt lat="45.33862" lon="5.48251">
        <ele>357</ele>
        <time>2017-03-26T12:30:41Z</time>
      </trkpt>
      <trkpt lat="45.33867" lon="5.48227">
        <ele>363</ele>
        <time>2017-03-26T12:32:41Z</time>
      </trkpt>
      <trkpt lat="45.33873" lon="5.48206">
        <ele>368</ele>
        <time>2017-03-26T12:34:41Z</time>
      </trkpt>
      <trkpt lat="45.33879" lon="5.48192">
        <ele>371</ele>
        <time>2017-03-26T12:36:41Z</time>
      </trkpt>
      <trkpt lat="45.33885" lon="5.48179">
        <ele>373</ele>
        <time>2017-03-26T12:38:41Z</time>
      </trkpt>
      <trkpt lat="45.33922" lon="5.48109">
        <ele>386</ele>
        <time>2017-03-26T12:40:41Z</time>
      </trkpt>
      <trkpt lat="45.33937" lon="5.48074">
        <ele>393</ele>
        <time>2017-03-26T12:42:41Z</time>
      </trkpt>
      <trkpt lat="45.33937" lon="5.48074">
        <ele>393</ele>
        <time>2017-03-26T12:44:41Z</time>
      </trkpt>
      <trkpt lat="45.33941" lon="5.48066">
        <ele>395</ele>
        <time>2017-03-26T12:46:41Z</time>
      </trkpt>
      <trkpt lat="45.33944" lon="5.48052">
        <ele>397</ele>
        <time>2017-03-26T12:48:41Z</time>
      </trkpt>
      <trkpt lat="45.33945" lon="5.48045">
        <ele>398</ele>
        <time>2017-03-26T12:50:41Z</time>
      </trkpt>
      <trkpt lat="45.33945" lon="5.48028">
        <ele>401</ele>
        <time>2017-03-26T12:52:41Z</time>
      </trkpt>
      <trkpt lat="45.33939" lon="5.47991">
        <ele>405</ele>
        <time>2017-03-26T12:54:41Z</time>
      </trkpt>
      <trkpt lat="45.33934" lon="5.47968">
        <ele>407</ele>
        <time>2017-03-26T12:56:41Z</time>
      </trkpt>
      <trkpt lat="45.33928" lon="5.47932">
        <ele>411</ele>
        <time>2017-03-26T12:58:41Z</time>
      </trkpt>
      <trkpt lat="45.33921" lon="5.47889">
        <ele>414</ele>
        <time>2017-03-26T13:00:41Z</time>
      </trkpt>
      <trkpt lat="45.33913" lon="5.47857">
        <ele>416</ele>
        <time>2017-03-26T13:02:41Z</time>
      </trkpt>
      <trkpt lat="45.33903" lon="5.47818">
        <ele>418</ele>
        <time>2017-03-26T13:04:41Z</time>
      </trkpt>
      <trkpt lat="45.339" lon="5.47804">
        <ele>419</ele>
        <time>2017-03-26T13:06:41Z</time>
      </trkpt>
      <trkpt lat="45.33893" lon="5.47774">
        <ele>421</ele>
        <time>2017-03-26T13:08:41Z</time>
      </trkpt>
      <trkpt lat="45.3389" lon="5.47763">
        <ele>422</ele>
        <time>2017-03-26T13:10:41Z</time>
      </trkpt>
      <trkpt lat="45.33884" lon="5.47742">
        <ele>423</ele>
        <time>2017-03-26T13:12:41Z</time>
      </trkpt>
      <trkpt lat="45.33879" lon="5.47715">
        <ele>425</ele>
        <time>2017-03-26T13:14:41Z</time>
      </trkpt>
      <trkpt lat="45.33876" lon="5.47685">
        <ele>428</ele>
        <time>2017-03-26T13:16:41Z</time>
      </trkpt>
      <trkpt lat="45.33872" lon="5.47655">
        <ele>430</ele>
        <time>2017-03-26T13:18:41Z</time>
      </trkpt>
      <trkpt lat="45.33868" lon="5.47624">
        <ele>430</ele>
        <time>2017-03-26T13:20:41Z</time>
      </trkpt>
      <trkpt lat="45.33864" lon="5.47605">
        <ele>431</ele>
        <time>2017-03-26T13:22:41Z</time>
      </trkpt>
      <trkpt lat="45.3386" lon="5.47592">
        <ele>431</ele>
        <time>2017-03-26T13:24:41Z</time>
      </trkpt>
      <trkpt lat="45.33841" lon="5.47535">
        <ele>433</ele>
        <time>2017-03-26T13:26:41Z</time>
      </trkpt>
      <trkpt lat="45.33826" lon="5.47495">
        <ele>435</ele>
        <time>2017-03-26T13:28:41Z</time>
      </trkpt>
      <trkpt lat="45.33823" lon="5.47487">
        <ele>435</ele>
        <time>2017-03-26T13:30:41Z</time>
      </trkpt>
      <trkpt lat="45.33819" lon="5.47468">
        <ele>437</ele>
        <time>2017-03-26T13:32:41Z</time>
      </trkpt>
      <trkpt lat="45.33817" lon="5.47456">
        <ele>437</ele>
        <time>2017-03-26T13:34:41Z</time>
      </trkpt>
      <trkpt lat="45.33817" lon="5.47453">
        <ele>438</ele>
        <time>2017-03-26T13:36:41Z</time>
      </trkpt>
      <trkpt lat="45.33817" lon="5.47449">
        <ele>438</ele>
        <time>2017-03-26T13:38:41Z</time>
      </trkpt>
      <trkpt lat="45.33818" lon="5.47446">
        <ele>438</ele>
        <time>2017-03-26T13:40:41Z</time>
      </trkpt>
      <trkpt lat="45.33818" lon="5.47443">
        <ele>438</ele>
        <time>2017-03-26T13:42:41Z</time>
      </trkpt>
      <trkpt lat="45.33818" lon="5.47439">
        <ele>438</ele>
        <time>2017-03-26T13:44:41Z</time>
      </trkpt>
      <trkpt lat="45.33818" lon="5.47436">
        <ele>439</ele>
        <time>2017-03-26T13:46:41Z</time>
      </trkpt>
      <trkpt lat="45.33821" lon="5.47416">
        <ele>440</ele>
        <time>2017-03-26T13:48:41Z</time>
      </trkpt>
      <trkpt lat="45.33821" lon="5.47416">
        <ele>440</ele>
        <time>2017-03-26T13:50:41Z</time>
      </trkpt>
      <trkpt lat="45.33822" lon="5.47416">
        <ele>440</ele>
        <time>2017-03-26T13:52:41Z</time>
      </trkpt>
      <trkpt lat="45.33823" lon="5.47416">
        <ele>440</ele>
        <time>2017-03-26T13:54:41Z</time>
      </trkpt>
      <trkpt lat="45.33824" lon="5.47416">
        <ele>439</ele>
        <time>2017-03-26T13:56:41Z</time>
      </trkpt>
      <trkpt lat="45.33824" lon="5.47415">
        <ele>439</ele>
        <time>2017-03-26T13:58:41Z</time>
      </trkpt>
      <trkpt lat="45.33825" lon="5.47415">
        <ele>439</ele>
        <time>2017-03-26T14:00:41Z</time>
      </trkpt>
      <trkpt lat="45.33825" lon="5.47414">
        <ele>439</ele>
        <time>2017-03-26T14:02:41Z</time>
      </trkpt>
      <trkpt lat="45.33826" lon="5.47414">
        <ele>439</ele>
        <time>2017-03-26T14:04:41Z</time>
      </trkpt>
      <trkpt lat="45.33826" lon="5.47413">
        <ele>439</ele>
        <time>2017-03-26T14:06:41Z</time>
      </trkpt>
      <trkpt lat="45.33826" lon="5.47412">
        <ele>439</ele>
        <time>2017-03-26T14:08:41Z</time>
      </trkpt>
      <trkpt lat="45.33827" lon="5.47412">
        <ele>439</ele>
        <time>2017-03-26T14:10:41Z</time>
      </trkpt>
      <trkpt lat="45.33827" lon="5.47411">
        <ele>439</ele>
        <time>2017-03-26T14:12:41Z</time>
      </trkpt>
      <trkpt lat="45.33827" lon="5.4741">
        <ele>439</ele>
        <time>2017-03-26T14:14:41Z</time>
      </trkpt>
      <trkpt lat="45.33827" lon="5.47409">
        <ele>439</ele>
        <time>2017-03-26T14:16:41Z</time>
      </trkpt>
      <trkpt lat="45.33827" lon="5.47408">
        <ele>439</ele>
        <time>2017-03-26T14:18:41Z</time>
      </trkpt>
      <trkpt lat="45.33826" lon="5.47407">
        <ele>439</ele>
        <time>2017-03-26T14:20:41Z</time>
      </trkpt>
      <trkpt lat="45.33826" lon="5.47406">
        <ele>440</ele>
        <time>2017-03-26T14:22:41Z</time>
      </trkpt>
      <trkpt lat="45.33826" lon="5.47405">
        <ele>440</ele>
        <time>2017-03-26T14:24:41Z</time>
      </trkpt>
      <trkpt lat="45.33825" lon="5.47405">
        <ele>440</ele>
        <time>2017-03-26T14:26:41Z</time>
      </trkpt>
      <trkpt lat="45.33825" lon="5.47404">
        <ele>440</ele>
        <time>2017-03-26T14:28:41Z</time>
      </trkpt>
      <trkpt lat="45.33824" lon="5.47404">
        <ele>440</ele>
        <time>2017-03-26T14:30:41Z</time>
      </trkpt>
      <trkpt lat="45.33823" lon="5.47404">
        <ele>440</ele>
        <time>2017-03-26T14:32:41Z</time>
      </trkpt>
      <trkpt lat="45.33822" lon="5.47404">
        <ele>440</ele>
        <time>2017-03-26T14:34:41Z</time>
      </trkpt>
      <trkpt lat="45.33821" lon="5.47404">
        <ele>440</ele>
        <time>2017-03-26T14:36:41Z</time>
      </trkpt>
      <trkpt lat="45.33821" lon="5.47405">
        <ele>440</ele>
        <time>2017-03-26T14:38:41Z</time>
      </trkpt>
      <trkpt lat="45.3382" lon="5.47405">
        <ele>440</ele>
        <time>2017-03-26T14:40:41Z</time>
      </trkpt>
      <trkpt lat="45.3382" lon="5.47406">
        <ele>440</ele>
        <time>2017-03-26T14:42:41Z</time>
      </trkpt>
      <trkpt lat="45.33819" lon="5.47406">
        <ele>440</ele>
        <time>2017-03-26T14:44:41Z</time>
      </trkpt>
      <trkpt lat="45.33816" lon="5.47403">
        <ele>440</ele>
        <time>2017-03-26T14:46:41Z</time>
      </trkpt>
      <trkpt lat="45.33814" lon="5.47401">
        <ele>440</ele>
        <time>2017-03-26T14:48:41Z</time>
      </trkpt>
      <trkpt lat="45.33811" lon="5.47401">
        <ele>440</ele>
        <time>2017-03-26T14:50:41Z</time>
      </trkpt>
      <trkpt lat="45.33809" lon="5.47401">
        <ele>440</ele>
        <time>2017-03-26T14:52:41Z</time>
      </trkpt>
      <trkpt lat="45.33799" lon="5.47405">
        <ele>441</ele>
        <time>2017-03-26T14:54:41Z</time>
      </trkpt>
      <trkpt lat="45.33798" lon="5.47405">
        <ele>441</ele>
        <time>2017-03-26T14:56:41Z</time>
      </trkpt>
      <trkpt lat="45.33789" lon="5.4741">
        <ele>441</ele>
        <time>2017-03-26T14:58:41Z</time>
      </trkpt>
      <trkpt lat="45.33778" lon="5.47417">
        <ele>442</ele>
        <time>2017-03-26T15:00:41Z</time>
      </trkpt>
      <trkpt lat="45.33749" lon="5.47434">
        <ele>442</ele>
        <time>2017-03-26T15:02:41Z</time>
      </trkpt>
      <trkpt lat="45.33735" lon="5.4744">
        <ele>442</ele>
        <time>2017-03-26T15:04:41Z</time>
      </trkpt>
      <trkpt lat="45.3371" lon="5.47451">
        <ele>441</ele>
        <time>2017-03-26T15:06:41Z</time>
      </trkpt>
      <trkpt lat="45.33694" lon="5.47459">
        <ele>440</ele>
        <time>2017-03-26T15:08:41Z</time>
      </trkpt>
      <trkpt lat="45.33686" lon="5.47463">
        <ele>440</ele>
        <time>2017-03-26T15:10:41Z</time>
      </trkpt>
      <trkpt lat="45.33664" lon="5.47465">
        <ele>440</ele>
        <time>2017-03-26T15:12:41Z</time>
      </trkpt>
      <trkpt lat="45.33645" lon="5.4747">
        <ele>440</ele>
        <time>2017-03-26T15:14:41Z</time>
      </trkpt>
      <trkpt lat="45.3364" lon="5.47472">
        <ele>440</ele>
        <time>2017-03-26T15:16:41Z</time>
      </trkpt>
      <trkpt lat="45.33634" lon="5.47474">
        <ele>441</ele>
        <time>2017-03-26T15:18:41Z</time>
      </trkpt>
      <trkpt lat="45.33601" lon="5.47489">
        <ele>441</ele>
        <time>2017-03-26T15:20:41Z</time>
      </trkpt>
      <trkpt lat="45.33578" lon="5.475">
        <ele>441</ele>
        <time>2017-03-26T15:22:41Z</time>
      </trkpt>
      <trkpt lat="45.3357" lon="5.47503">
        <ele>441</ele>
        <time>2017-03-26T15:24:41Z</time>
      </trkpt>
      <trkpt lat="45.33564" lon="5.47504">
        <ele>441</ele>
        <time>2017-03-26T15:26:41Z</time>
      </trkpt>
      <trkpt lat="45.33554" lon="5.47505">
        <ele>442</ele>
        <time>2017-03-26T15:28:41Z</time>
      </trkpt>
      <trkpt lat="45.33527" lon="5.47502">
        <ele>442</ele>
        <time>2017-03-26T15:30:41Z</time>
      </trkpt>
      <trkpt lat="45.33502" lon="5.47502">
        <ele>443</ele>
        <time>2017-03-26T15:32:41Z</time>
      </trkpt>
      <trkpt lat="45.33483" lon="5.47503">
        <ele>443</ele>
        <time>2017-03-26T15:34:41Z</time>
      </trkpt>
      <trkpt lat="45.33481" lon="5.47503">
        <ele>443</ele>
        <time>2017-03-26T15:36:41Z</time>
      </trkpt>
      <trkpt lat="45.33463" lon="5.47509">
        <ele>443</ele>
        <time>2017-03-26T15:38:41Z</time>
      </trkpt>
      <trkpt lat="45.33449" lon="5.47517">
        <ele>443</ele>
        <time>2017-03-26T15:40:41Z</time>
      </trkpt>
      <trkpt lat="45.33439" lon="5.47525">
        <ele>442</ele>
        <time>2017-03-26T15:42:41Z</time>
      </trkpt>
      <trkpt lat="45.3343" lon="5.47536">
        <ele>442</ele>
        <time>2017-03-26T15:44:41Z</time>
      </trkpt>
      <trkpt lat="45.33421" lon="5.47549">
        <ele>442</ele>
        <time>2017-03-26T15:46:41Z</time>
      </trkpt>
      <trkpt lat="45.33409" lon="5.47569">
        <ele>443</ele>
        <time>2017-03-26T15:48:41Z</time>
      </trkpt>
      <trkpt lat="45.33382" lon="5.47606">
        <ele>443</ele>
        <time>2017-03-26T15:50:41Z</time>
      </trkpt>
      <trkpt lat="45.3337" lon="5.47624">
        <ele>443</ele>
        <time>2017-03-26T15:52:41Z</time>
      </trkpt>
      <trkpt lat="45.33363" lon="5.47634">
        <ele>443</ele>
        <time>2017-03-26T15:54:41Z</time>
      </trkpt>
      <trkpt lat="45.33357" lon="5.47641">
        <ele>443</ele>
        <time>2017-03-26T15:56:41Z</time>
      </trkpt>
      <trkpt lat="45.33341" lon="5.47651">
        <ele>445</ele>
        <time>2017-03-26T15:58:41Z</time>
      </trkpt>
      <trkpt lat="45.33315" lon="5.47666">
        <ele>445</ele>
        <time>2017-03-26T16:00:41Z</time>
      </trkpt>
      <trkpt lat="45.33279" lon="5.47692">
        <ele>444</ele>
        <time>2017-03-26T16:02:41Z</time>
      </trkpt>
      <trkpt lat="45.33263" lon="5.47704">
        <ele>444</ele>
        <time>2017-03-26T16:04:41Z</time>
      </trkpt>
      <trkpt lat="45.3325" lon="5.47716">
        <ele>443</ele>
        <time>2017-03-26T16:06:41Z</time>
      </trkpt>
      <trkpt lat="45.33243" lon="5.47722">
        <ele>444</ele>
        <time>2017-03-26T16:08:41Z</time>
      </trkpt>
      <trkpt lat="45.33238" lon="5.47729">
        <ele>444</ele>
        <time>2017-03-26T16:10:41Z</time>
      </trkpt>
      <trkpt lat="45.33236" lon="5.47736">
        <ele>443</ele>
        <time>2017-03-26T16:12:41Z</time>
      </trkpt>
      <trkpt lat="45.33225" lon="5.47756">
        <ele>443</ele>
        <time>2017-03-26T16:14:41Z</time>
      </trkpt>
      <trkpt lat="45.33218" lon="5.47768">
        <ele>442</ele>
        <time>2017-03-26T16:16:41Z</time>
      </trkpt>
      <trkpt lat="45.33203" lon="5.47798">
        <ele>441</ele>
        <time>2017-03-26T16:18:41Z</time>
      </trkpt>
      <trkpt lat="45.33197" lon="5.47805">
        <ele>441</ele>
        <time>2017-03-26T16:20:41Z</time>
      </trkpt>
      <trkpt lat="45.33193" lon="5.47808">
        <ele>441</ele>
        <time>2017-03-26T16:22:41Z</time>
      </trkpt>
      <trkpt lat="45.33177" lon="5.47814">
        <ele>443</ele>
        <time>2017-03-26T16:24:41Z</time>
      </trkpt>
      <trkpt lat="45.33165" lon="5.47823">
        <ele>443</ele>
        <time>2017-03-26T16:26:41Z</time>
      </trkpt>
      <trkpt lat="45.33148" lon="5.47835">
        <ele>443</ele>
        <time>2017-03-26T16:28:41Z</time>
      </trkpt>
      <trkpt lat="45.33142" lon="5.47842">
        <ele>444</ele>
        <time>2017-03-26T16:30:41Z</time>
      </trkpt>
      <trkpt lat="45.33121" lon="5.47867">
        <ele>445</ele>
        <time>2017-03-26T16:32:41Z</time>
      </trkpt>
      <trkpt lat="45.33101" lon="5.47894">
        <ele>444</ele>
        <time>2017-03-26T16:34:41Z</time>
      </trkpt>
      <trkpt lat="45.33092" lon="5.47904">
        <ele>444</ele>
        <time>2017-03-26T16:36:41Z</time>
      </trkpt>
      <trkpt lat="45.33083" lon="5.4791">
        <ele>443</ele>
        <time>2017-03-26T16:38:41Z</time>
      </trkpt>
      <trkpt lat="45.33067" lon="5.47919">
        <ele>444</ele>
        <time>2017-03-26T16:40:41Z</time>
      </trkpt>
      <trkpt lat="45.33042" lon="5.47927">
        <ele>444</ele>
        <time>2017-03-26T16:42:41Z</time>
      </trkpt>
      <trkpt lat="45.33035" lon="5.47931">
        <ele>444</ele>
        <time>2017-03-26T16:44:41Z</time>
      </trkpt>
      <trkpt lat="45.3302" lon="5.47941">
        <ele>444</ele>
        <time>2017-03-26T16:46:41Z</time>
      </trkpt>
      <trkpt lat="45.33013" lon="5.47947">
        <ele>444</ele>
        <time>2017-03-26T16:48:41Z</time>
      </trkpt>
      <trkpt lat="45.32997" lon="5.4796">
        <ele>444</ele>
        <time>2017-03-26T16:50:41Z</time>
      </trkpt>
      <trkpt lat="45.32983" lon="5.47969">
        <ele>444</ele>
        <time>2017-03-26T16:52:41Z</time>
      </trkpt>
      <trkpt lat="45.32968" lon="5.47976">
        <ele>445</ele>
        <time>2017-03-26T16:54:41Z</time>
      </trkpt>
      <trkpt lat="45.32961" lon="5.47979">
        <ele>445</ele>
        <time>2017-03-26T16:56:41Z</time>
      </trkpt>
      <trkpt lat="45.32928" lon="5.4799">
        <ele>447</ele>
        <time>2017-03-26T16:58:41Z</time>
      </trkpt>
      <trkpt lat="45.32915" lon="5.47995">
        <ele>448</ele>
        <time>2017-03-26T17:00:41Z</time>
      </trkpt>
      <trkpt lat="45.32907" lon="5.48">
        <ele>448</ele>
        <time>2017-03-26T17:02:41Z</time>
      </trkpt>
      <trkpt lat="45.32885" lon="5.48017">
        <ele>449</ele>
        <time>2017-03-26T17:04:41Z</time>
      </trkpt>
      <trkpt lat="45.3284" lon="5.4805">
        <ele>449</ele>
        <time>2017-03-26T17:06:41Z</time>
      </trkpt>
      <trkpt lat="45.32814" lon="5.48067">
        <ele>450</ele>
        <time>2017-03-26T17:08:41Z</time>
      </trkpt>
      <trkpt lat="45.32752" lon="5.48115">
        <ele>453</ele>
        <time>2017-03-26T17:10:41Z</time>
      </trkpt>
      <trkpt lat="45.32742" lon="5.48124">
        <ele>454</ele>
        <time>2017-03-26T17:12:41Z</time>
      </trkpt>
      <trkpt lat="45.32736" lon="5.48131">
        <ele>455</ele>
        <time>2017-03-26T17:14:41Z</time>
      </trkpt>
      <trkpt lat="45.32702" lon="5.4818">
        <ele>454</ele>
        <time>2017-03-26T17:16:41Z</time>
      </trkpt>
      <trkpt lat="45.32688" lon="5.48196">
        <ele>454</ele>
        <time>2017-03-26T17:18:41Z</time>
      </trkpt>
      <trkpt lat="45.32681" lon="5.48203">
        <ele>455</ele>
        <time>2017-03-26T17:20:41Z</time>
      </trkpt>
      <trkpt lat="45.32674" lon="5.48208">
        <ele>455</ele>
        <time>2017-03-26T17:22:41Z</time>
      </trkpt>
      <trkpt lat="45.32668" lon="5.48212">
        <ele>455</ele>
        <time>2017-03-26T17:24:41Z</time>
      </trkpt>
      <trkpt lat="45.32668" lon="5.48212">
        <ele>455</ele>
        <time>2017-03-26T17:26:41Z</time>
      </trkpt>
      <trkpt lat="45.32666" lon="5.48213">
        <ele>455</ele>
        <time>2017-03-26T17:28:41Z</time>
      </trkpt>
      <trkpt lat="45.32655" lon="5.48219">
        <ele>456</ele>
        <time>2017-03-26T17:30:41Z</time>
      </trkpt>
      <trkpt lat="45.32644" lon="5.48223">
        <ele>457</ele>
        <time>2017-03-26T17:32:41Z</time>
      </trkpt>
      <trkpt lat="45.32623" lon="5.48233">
        <ele>459</ele>
        <time>2017-03-26T17:34:41Z</time>
      </trkpt>
      <trkpt lat="45.32605" lon="5.48244">
        <ele>459</ele>
        <time>2017-03-26T17:36:41Z</time>
      </trkpt>
      <trkpt lat="45.32584" lon="5.48259">
        <ele>460</ele>
        <time>2017-03-26T17:38:41Z</time>
      </trkpt>
      <trkpt lat="45.32573" lon="5.48265">
        <ele>461</ele>
        <time>2017-03-26T17:40:41Z</time>
      </trkpt>
      <trkpt lat="45.32542" lon="5.48286">
        <ele>463</ele>
        <time>2017-03-26T17:42:41Z</time>
      </trkpt>
      <trkpt lat="45.32526" lon="5.48301">
        <ele>463</ele>
        <time>2017-03-26T17:44:41Z</time>
      </trkpt>
      <trkpt lat="45.32515" lon="5.48311">
        <ele>464</ele>
        <time>2017-03-26T17:46:41Z</time>
      </trkpt>
      <trkpt lat="45.32507" lon="5.48318">
        <ele>464</ele>
        <time>2017-03-26T17:48:41Z</time>
      </trkpt>
      <trkpt lat="45.32495" lon="5.48325">
        <ele>464</ele>
        <time>2017-03-26T17:50:41Z</time>
      </trkpt>
      <trkpt lat="45.32495" lon="5.48325">
        <ele>464</ele>
        <time>2017-03-26T17:52:41Z</time>
      </trkpt>
      <trkpt lat="45.32492" lon="5.48327">
        <ele>464</ele>
        <time>2017-03-26T17:54:41Z</time>
      </trkpt>
      <trkpt lat="45.32463" lon="5.48351">
        <ele>466</ele>
        <time>2017-03-26T17:56:41Z</time>
      </trkpt>
      <trkpt lat="45.32442" lon="5.48371">
        <ele>467</ele>
        <time>2017-03-26T17:58:41Z</time>
      </trkpt>
      <trkpt lat="45.3242" lon="5.48391">
        <ele>468</ele>
        <time>2017-03-26T18:00:41Z</time>
      </trkpt>
      <trkpt lat="45.32394" lon="5.48406">
        <ele>469</ele>
        <time>2017-03-26T18:02:41Z</time>
      </trkpt>
      <trkpt lat="45.32379" lon="5.48415">
        <ele>469</ele>
        <time>2017-03-26T18:04:41Z</time>
      </trkpt>
      <trkpt lat="45.32365" lon="5.48423">
        <ele>469</ele>
        <time>2017-03-26T18:06:41Z</time>
      </trkpt>
      <trkpt lat="45.32348" lon="5.4843">
        <ele>469</ele>
        <time>2017-03-26T18:08:41Z</time>
      </trkpt>
      <trkpt lat="45.32334" lon="5.48434">
        <ele>469</ele>
        <time>2017-03-26T18:10:41Z</time>
      </trkpt>
      <trkpt lat="45.32328" lon="5.48434">
        <ele>470</ele>
        <time>2017-03-26T18:12:41Z</time>
      </trkpt>
      <trkpt lat="45.32311" lon="5.48435">
        <ele>471</ele>
        <time>2017-03-26T18:14:41Z</time>
      </trkpt>
      <trkpt lat="45.32303" lon="5.48434">
        <ele>471</ele>
        <time>2017-03-26T18:16:41Z</time>
      </trkpt>
      <trkpt lat="45.32284" lon="5.48432">
        <ele>473</ele>
        <time>2017-03-26T18:18:41Z</time>
      </trkpt>
      <trkpt lat="45.32247" lon="5.48425">
        <ele>476</ele>
        <time>2017-03-26T18:20:41Z</time>
      </trkpt>
      <trkpt lat="45.32219" lon="5.48418">
        <ele>475</ele>
        <time>2017-03-26T18:22:41Z</time>
      </trkpt>
      <trkpt lat="45.32214" lon="5.48417">
        <ele>475</ele>
        <time>2017-03-26T18:24:41Z</time>
      </trkpt>
      <trkpt lat="45.32202" lon="5.48411">
        <ele>475</ele>
        <time>2017-03-26T18:26:41Z</time>
      </trkpt>
      <trkpt lat="45.32201" lon="5.4841">
        <ele>475</ele>
        <time>2017-03-26T18:28:41Z</time>
      </trkpt>
      <trkpt lat="45.3219" lon="5.48403">
        <ele>475</ele>
        <time>2017-03-26T18:30:41Z</time>
      </trkpt>
      <trkpt lat="45.32183" lon="5.48396">
        <ele>476</ele>
        <time>2017-03-26T18:32:41Z</time>
      </trkpt>
      <trkpt lat="45.32162" lon="5.48382">
        <ele>476</ele>
        <time>2017-03-26T18:34:41Z</time>
      </trkpt>
      <trkpt lat="45.32134" lon="5.48365">
        <ele>475</ele>
        <time>2017-03-26T18:36:41Z</time>
      </trkpt>
      <trkpt lat="45.32117" lon="5.48352">
        <ele>475</ele>
        <time>2017-03-26T18:38:41Z</time>
      </trkpt>
      <trkpt lat="45.32097" lon="5.48338">
        <ele>475</ele>
        <time>2017-03-26T18:40:41Z</time>
      </trkpt>
      <trkpt lat="45.32082" lon="5.48327">
        <ele>476</ele>
        <time>2017-03-26T18:42:41Z</time>
      </trkpt>
      <trkpt lat="45.32071" lon="5.48322">
        <ele>474</ele>
        <time>2017-03-26T18:44:41Z</time>
      </trkpt>
      <trkpt lat="45.32063" lon="5.4832">
        <ele>473</ele>
        <time>2017-03-26T18:46:41Z</time>
      </trkpt>
      <trkpt lat="45.32046" lon="5.48318">
        <ele>470</ele>
        <time>2017-03-26T18:48:41Z</time>
      </trkpt>
      <trkpt lat="45.32036" lon="5.48316">
        <ele>468</ele>
        <time>2017-03-26T18:50:41Z</time>
      </trkpt>
      <trkpt lat="45.32014" lon="5.48304">
        <ele>466</ele>
        <time>2017-03-26T18:52:41Z</time>
      </trkpt>
      <trkpt lat="45.32001" lon="5.483">
        <ele>464</ele>
        <time>2017-03-26T18:54:41Z</time>
      </trkpt>
      <trkpt lat="45.31987" lon="5.48296">
        <ele>464</ele>
        <time>2017-03-26T18:56:41Z</time>
      </trkpt>
      <trkpt lat="45.31954" lon="5.48287">
        <ele>464</ele>
        <time>2017-03-26T18:58:41Z</time>
      </trkpt>
      <trkpt lat="45.31932" lon="5.48284">
        <ele>464</ele>
        <time>2017-03-26T19:00:41Z</time>
      </trkpt>
      <trkpt lat="45.31917" lon="5.48285">
        <ele>463</ele>
        <time>2017-03-26T19:02:41Z</time>
      </trkpt>
      <trkpt lat="45.31894" lon="5.48291">
        <ele>460</ele>
        <time>2017-03-26T19:04:41Z</time>
      </trkpt>
      <trkpt lat="45.31858" lon="5.48297">
        <ele>456</ele>
        <time>2017-03-26T19:06:41Z</time>
      </trkpt>
      <trkpt lat="45.31842" lon="5.48299">
        <ele>455</ele>
        <time>2017-03-26T19:08:41Z</time>
      </trkpt>
      <trkpt lat="45.31826" lon="5.48303">
        <ele>453</ele>
        <time>2017-03-26T19:10:41Z</time>
      </trkpt>
      <trkpt lat="45.31814" lon="5.48304">
        <ele>451</ele>
        <time>2017-03-26T19:12:41Z</time>
      </trkpt>
      <trkpt lat="45.31802" lon="5.48304">
        <ele>450</ele>
        <time>2017-03-26T19:14:41Z</time>
      </trkpt>
      <trkpt lat="45.31791" lon="5.48301">
        <ele>449</ele>
        <time>2017-03-26T19:16:41Z</time>
      </trkpt>
      <trkpt lat="45.31783" lon="5.48295">
        <ele>449</ele>
        <time>2017-03-26T19:18:41Z</time>
      </trkpt>
      <trkpt lat="45.31775" lon="5.48289">
        <ele>449</ele>
        <time>2017-03-26T19:20:41Z</time>
      </trkpt>
      <trkpt lat="45.31775" lon="5.48288">
        <ele>449</ele>
        <time>2017-03-26T19:22:41Z</time>
      </trkpt>
      <trkpt lat="45.31766" lon="5.48279">
        <ele>449</ele>
        <time>2017-03-26T19:24:41Z</time>
      </trkpt>
      <trkpt lat="45.31746" lon="5.48266">
        <ele>449</ele>
        <time>2017-03-26T19:26:41Z</time>
      </trkpt>
      <trkpt lat="45.31732" lon="5.48257">
        <ele>448</ele>
        <time>2017-03-26T19:28:41Z</time>
      </trkpt>
      <trkpt lat="45.31724" lon="5.48253">
        <ele>447</ele>
        <time>2017-03-26T19:30:41Z</time>
      </trkpt>
      <trkpt lat="45.31707" lon="5.48243">
        <ele>446</ele>
        <time>2017-03-26T19:32:41Z</time>
      </trkpt>
      <trkpt lat="45.31688" lon="5.48234">
        <ele>445</ele>
        <time>2017-03-26T19:34:41Z</time>
      </trkpt>
      <trkpt lat="45.31661" lon="5.4823">
        <ele>442</ele>
        <time>2017-03-26T19:36:41Z</time>
      </trkpt>
      <trkpt lat="45.31642" lon="5.48225">
        <ele>439</ele>
        <time>2017-03-26T19:38:41Z</time>
      </trkpt>
      <trkpt lat="45.31642" lon="5.48225">
        <ele>439</ele>
        <time>2017-03-26T19:40:41Z</time>
      </trkpt>
      <trkpt lat="45.31627" lon="5.48221">
        <ele>436</ele>
        <time>2017-03-26T19:42:41Z</time>
      </trkpt>
      <trkpt lat="45.31618" lon="5.48216">
        <ele>435</ele>
        <time>2017-03-26T19:44:41Z</time>
      </trkpt>
      <trkpt lat="45.31614" lon="5.48213">
        <ele>434</ele>
        <time>2017-03-26T19:46:41Z</time>
      </trkpt>
      <trkpt lat="45.31612" lon="5.48211">
        <ele>434</ele>
        <time>2017-03-26T19:48:41Z</time>
      </trkpt>
      <trkpt lat="45.31606" lon="5.48203">
        <ele>434</ele>
        <time>2017-03-26T19:50:41Z</time>
      </trkpt>
      <trkpt lat="45.316" lon="5.48193">
        <ele>434</ele>
        <time>2017-03-26T19:52:41Z</time>
      </trkpt>
      <trkpt lat="45.31589" lon="5.48165">
        <ele>434</ele>
        <time>2017-03-26T19:54:41Z</time>
      </trkpt>
      <trkpt lat="45.31576" lon="5.48136">
        <ele>434</ele>
        <time>2017-03-26T19:56:41Z</time>
      </trkpt>
      <trkpt lat="45.31555" lon="5.48098">
        <ele>432</ele>
        <time>2017-03-26T19:58:41Z</time>
      </trkpt>
      <trkpt lat="45.31542" lon="5.48079">
        <ele>431</ele>
        <time>2017-03-26T20:00:41Z</time>
      </trkpt>
      <trkpt lat="45.31536" lon="5.48069">
        <ele>430</ele>
        <time>2017-03-26T20:02:41Z</time>
      </trkpt>
      <trkpt lat="45.31532" lon="5.48059">
        <ele>430</ele>
        <time>2017-03-26T20:04:41Z</time>
      </trkpt>
      <trkpt lat="45.31525" lon="5.48044">
        <ele>430</ele>
        <time>2017-03-26T20:06:41Z</time>
      </trkpt>
      <trkpt lat="45.31521" lon="5.48035">
        <ele>430</ele>
        <time>2017-03-26T20:08:41Z</time>
      </trkpt>
      <trkpt lat="45.31518" lon="5.4802">
        <ele>431</ele>
        <time>2017-03-26T20:10:41Z</time>
      </trkpt>
      <trkpt lat="45.31512" lon="5.48">
        <ele>432</ele>
        <time>2017-03-26T20:12:41Z</time>
      </trkpt>
      <trkpt lat="45.3151" lon="5.47988">
        <ele>433</ele>
        <time>2017-03-26T20:14:41Z</time>
      </trkpt>
      <trkpt lat="45.31503" lon="5.4798">
        <ele>431</ele>
        <time>2017-03-26T20:16:41Z</time>
      </trkpt>
      <trkpt lat="45.31489" lon="5.47966">
        <ele>427</ele>
        <time>2017-03-26T20:18:41Z</time>
      </trkpt>
      <trkpt lat="45.31468" lon="5.4793">
        <ele>423</ele>
        <time>2017-03-26T20:20:41Z</time>
      </trkpt>
      <trkpt lat="45.31462" lon="5.47918">
        <ele>422</ele>
        <time>2017-03-26T20:22:41Z</time>
      </trkpt>
      <trkpt lat="45.31454" lon="5.47902">
        <ele>421</ele>
        <time>2017-03-26T20:24:41Z</time>
      </trkpt>
      <trkpt lat="45.3143" lon="5.47866">
        <ele>416</ele>
        <time>2017-03-26T20:26:41Z</time>
      </trkpt>
      <trkpt lat="45.31419" lon="5.47851">
        <ele>414</ele>
        <time>2017-03-26T20:28:41Z</time>
      </trkpt>
      <trkpt lat="45.31398" lon="5.47826">
        <ele>421</ele>
        <time>2017-03-26T20:30:41Z</time>
      </trkpt>
      <trkpt lat="45.31393" lon="5.47822">
        <ele>422</ele>
        <time>2017-03-26T20:32:41Z</time>
      </trkpt>
      <trkpt lat="45.31388" lon="5.47822">
        <ele>424</ele>
        <time>2017-03-26T20:34:41Z</time>
      </trkpt>
      <trkpt lat="45.31385" lon="5.47823">
        <ele>424</ele>
        <time>2017-03-26T20:36:41Z</time>
      </trkpt>
      <trkpt lat="45.31383" lon="5.47823">
        <ele>425</ele>
        <time>2017-03-26T20:38:41Z</time>
      </trkpt>
      <trkpt lat="45.3138" lon="5.47828">
        <ele>424</ele>
        <time>2017-03-26T20:40:41Z</time>
      </trkpt>
      <trkpt lat="45.31374" lon="5.47842">
        <ele>423</ele>
        <time>2017-03-26T20:42:41Z</time>
      </trkpt>
      <trkpt lat="45.31367" lon="5.47851">
        <ele>422</ele>
        <time>2017-03-26T20:44:41Z</time>
      </trkpt>
      <trkpt lat="45.31349" lon="5.47885">
        <ele>415</ele>
        <time>2017-03-26T20:46:41Z</time>
      </trkpt>
      <trkpt lat="45.31334" lon="5.47917">
        <ele>406</ele>
        <time>2017-03-26T20:48:41Z</time>
      </trkpt>
      <trkpt lat="45.31328" lon="5.47934">
        <ele>406</ele>
        <time>2017-03-26T20:50:41Z</time>
      </trkpt>
      <trkpt lat="45.3132" lon="5.47955">
        <ele>406</ele>
        <time>2017-03-26T20:52:41Z</time>
      </trkpt>
      <trkpt lat="45.31313" lon="5.47977">
        <ele>406</ele>
        <time>2017-03-26T20:54:41Z</time>
      </trkpt>
      <trkpt lat="45.31311" lon="5.47992">
        <ele>404</ele>
        <time>2017-03-26T20:56:41Z</time>
      </trkpt>
      <trkpt lat="45.31306" lon="5.4803">
        <ele>401</ele>
        <time>2017-03-26T20:58:41Z</time>
      </trkpt>
      <trkpt lat="45.31305" lon="5.48049">
        <ele>399</ele>
        <time>2017-03-26T21:00:41Z</time>
      </trkpt>
      <trkpt lat="45.31303" lon="5.48068">
        <ele>397</ele>
        <time>2017-03-26T21:02:41Z</time>
      </trkpt>
      <trkpt lat="45.313" lon="5.48087">
        <ele>395</ele>
        <time>2017-03-26T21:04:41Z</time>
      </trkpt>
      <trkpt lat="45.31296" lon="5.48102">
        <ele>393</ele>
        <time>2017-03-26T21:06:41Z</time>
      </trkpt>
      <trkpt lat="45.31291" lon="5.48116">
        <ele>392</ele>
        <time>2017-03-26T21:08:41Z</time>
      </trkpt>
      <trkpt lat="45.31284" lon="5.4813">
        <ele>392</ele>
        <time>2017-03-26T21:10:41Z</time>
      </trkpt>
      <trkpt lat="45.31275" lon="5.48144">
        <ele>393</ele>
        <time>2017-03-26T21:12:41Z</time>
      </trkpt>
      <trkpt lat="45.31261" lon="5.48158">
        <ele>396</ele>
        <time>2017-03-26T21:14:41Z</time>
      </trkpt>
      <trkpt lat="45.31246" lon="5.48171">
        <ele>398</ele>
        <time>2017-03-26T21:16:41Z</time>
      </trkpt>
      <trkpt lat="45.3123" lon="5.4819">
        <ele>395</ele>
        <time>2017-03-26T21:18:41Z</time>
      </trkpt>
      <trkpt lat="45.31211" lon="5.48215">
        <ele>393</ele>
        <time>2017-03-26T21:20:41Z</time>
      </trkpt>
      <trkpt lat="45.31207" lon="5.48221">
        <ele>393</ele>
        <time>2017-03-26T21:22:41Z</time>
      </trkpt>
      <trkpt lat="45.31198" lon="5.48237">
        <ele>392</ele>
        <time>2017-03-26T21:24:41Z</time>
      </trkpt>
      <trkpt lat="45.31191" lon="5.48251">
        <ele>392</ele>
        <time>2017-03-26T21:26:41Z</time>
      </trkpt>
      <trkpt lat="45.31184" lon="5.48267">
        <ele>390</ele>
        <time>2017-03-26T21:28:41Z</time>
      </trkpt>
      <trkpt lat="45.31173" lon="5.48303">
        <ele>385</ele>
        <time>2017-03-26T21:30:41Z</time>
      </trkpt>
      <trkpt lat="45.31168" lon="5.4832">
        <ele>383</ele>
        <time>2017-03-26T21:32:41Z</time>
      </trkpt>
      <trkpt lat="45.31161" lon="5.48336">
        <ele>380</ele>
        <time>2017-03-26T21:34:41Z</time>
      </trkpt>
      <trkpt lat="45.31155" lon="5.48351">
        <ele>375</ele>
        <time>2017-03-26T21:36:41Z</time>
      </trkpt>
      <trkpt lat="45.31145" lon="5.48372">
        <ele>370</ele>
        <time>2017-03-26T21:38:41Z</time>
      </trkpt>
      <trkpt lat="45.31133" lon="5.48393">
        <ele>365</ele>
        <time>2017-03-26T21:40:41Z</time>
      </trkpt>
      <trkpt lat="45.31127" lon="5.48401">
        <ele>364</ele>
        <time>2017-03-26T21:42:41Z</time>
      </trkpt>
      <trkpt lat="45.31116" lon="5.48409">
        <ele>364</ele>
        <time>2017-03-26T21:44:41Z</time>
      </trkpt>
      <trkpt lat="45.3111" lon="5.48413">
        <ele>363</ele>
        <time>2017-03-26T21:46:41Z</time>
      </trkpt>
      <trkpt lat="45.31095" lon="5.48418">
        <ele>365</ele>
        <time>2017-03-26T21:48:41Z</time>
      </trkpt>
      <trkpt lat="45.31086" lon="5.48421">
        <ele>366</ele>
        <time>2017-03-26T21:50:41Z</time>
      </trkpt>
      <trkpt lat="45.31071" lon="5.48436">
        <ele>362</ele>
        <time>2017-03-26T21:52:41Z</time>
      </trkpt>
      <trkpt lat="45.31065" lon="5.4844">
        <ele>360</ele>
        <time>2017-03-26T21:54:41Z</time>
      </trkpt>
      <trkpt lat="45.31061" lon="5.48441">
        <ele>360</ele>
        <time>2017-03-26T21:56:41Z</time>
      </trkpt>
      <trkpt lat="45.31057" lon="5.48442">
        <ele>359</ele>
        <time>2017-03-26T21:58:41Z</time>
      </trkpt>
      <trkpt lat="45.31049" lon="5.4844">
        <ele>359</ele>
        <time>2017-03-26T22:00:41Z</time>
      </trkpt>
      <trkpt lat="45.31035" lon="5.48435">
        <ele>359</ele>
        <time>2017-03-26T22:02:41Z</time>
      </trkpt>
      <trkpt lat="45.3101" lon="5.48423">
        <ele>360</ele>
        <time>2017-03-26T22:04:41Z</time>
      </trkpt>
      <trkpt lat="45.30967" lon="5.48398">
        <ele>358</ele>
        <time>2017-03-26T22:06:41Z</time>
      </trkpt>
      <trkpt lat="45.30958" lon="5.48392">
        <ele>357</ele>
        <time>2017-03-26T22:08:41Z</time>
      </trkpt>
      <trkpt lat="45.3095" lon="5.48384">
        <ele>357</ele>
        <time>2017-03-26T22:10:41Z</time>
      </trkpt>
      <trkpt lat="45.30942" lon="5.48378">
        <ele>357</ele>
        <time>2017-03-26T22:12:41Z</time>
      </trkpt>
      <trkpt lat="45.30932" lon="5.48372">
        <ele>356</ele>
        <time>2017-03-26T22:14:41Z</time>
      </trkpt>
      <trkpt lat="45.30906" lon="5.48362">
        <ele>354</ele>
        <time>2017-03-26T22:16:41Z</time>
      </trkpt>
      <trkpt lat="45.30864" lon="5.48348">
        <ele>351</ele>
        <time>2017-03-26T22:18:41Z</time>
      </trkpt>
      <trkpt lat="45.3085" lon="5.48346">
        <ele>350</ele>
        <time>2017-03-26T22:20:41Z</time>
      </trkpt>
      <trkpt lat="45.30841" lon="5.48346">
        <ele>349</ele>
        <time>2017-03-26T22:22:41Z</time>
      </trkpt>
      <trkpt lat="45.30832" lon="5.48349">
        <ele>348</ele>
        <time>2017-03-26T22:24:41Z</time>
      </trkpt>
      <trkpt lat="45.30827" lon="5.4835">
        <ele>347</ele>
        <time>2017-03-26T22:26:41Z</time>
      </trkpt>
      <trkpt lat="45.30822" lon="5.4835">
        <ele>347</ele>
        <time>2017-03-26T22:28:41Z</time>
      </trkpt>
      <trkpt lat="45.30797" lon="5.4834">
        <ele>346</ele>
        <time>2017-03-26T22:30:41Z</time>
      </trkpt>
      <trkpt lat="45.30784" lon="5.48332">
        <ele>345</ele>
        <time>2017-03-26T22:32:41Z</time>
      </trkpt>
      <trkpt lat="45.30773" lon="5.48324">
        <ele>345</ele>
        <time>2017-03-26T22:34:41Z</time>
      </trkpt>
      <trkpt lat="45.30769" lon="5.48317">
        <ele>345</ele>
        <time>2017-03-26T22:36:41Z</time>
      </trkpt>
      <trkpt lat="45.30766" lon="5.48311">
        <ele>345</ele>
        <time>2017-03-26T22:38:41Z</time>
      </trkpt>
      <trkpt lat="45.30762" lon="5.483">
        <ele>345</ele>
        <time>2017-03-26T22:40:41Z</time>
      </trkpt>
      <trkpt lat="45.30755" lon="5.48275">
        <ele>346</ele>
        <time>2017-03-26T22:42:41Z</time>
      </trkpt>
      <trkpt lat="45.3074" lon="5.48231">
        <ele>346</ele>
        <time>2017-03-26T22:44:41Z</time>
      </trkpt>
      <trkpt lat="45.30735" lon="5.48214">
        <ele>346</ele>
        <time>2017-03-26T22:46:41Z</time>
      </trkpt>
      <trkpt lat="45.30725" lon="5.4819">
        <ele>346</ele>
        <time>2017-03-26T22:48:41Z</time>
      </trkpt>
      <trkpt lat="45.30723" lon="5.48182">
        <ele>346</ele>
        <time>2017-03-26T22:50:41Z</time>
      </trkpt>
      <trkpt lat="45.30714" lon="5.48167">
        <ele>345</ele>
        <time>2017-03-26T22:52:41Z</time>
      </trkpt>
      <trkpt lat="45.30702" lon="5.48148">
        <ele>345</ele>
        <time>2017-03-26T22:54:41Z</time>
      </trkpt>
      <trkpt lat="45.30689" lon="5.48121">
        <ele>345</ele>
        <time>2017-03-26T22:56:41Z</time>
      </trkpt>
      <trkpt lat="45.30674" lon="5.48092">
        <ele>344</ele>
        <time>2017-03-26T22:58:41Z</time>
      </trkpt>
      <trkpt lat="45.30669" lon="5.4808">
        <ele>344</ele>
        <time>2017-03-26T23:00:41Z</time>
      </trkpt>
      <trkpt lat="45.30666" lon="5.48073">
        <ele>342</ele>
        <time>2017-03-26T23:02:41Z</time>
      </trkpt>
      <trkpt lat="45.30665" lon="5.48066">
        <ele>342</ele>
        <time>2017-03-26T23:04:41Z</time>
      </trkpt>
      <trkpt lat="45.30665" lon="5.48059">
        <ele>342</ele>
        <time>2017-03-26T23:06:41Z</time>
      </trkpt>
      <trkpt lat="45.30666" lon="5.48054">
        <ele>342</ele>
        <time>2017-03-26T23:08:41Z</time>
      </trkpt>
      <trkpt lat="45.30666" lon="5.48046">
        <ele>342</ele>
        <time>2017-03-26T23:10:41Z</time>
      </trkpt>
      <trkpt lat="45.30664" lon="5.48038">
        <ele>341</ele>
        <time>2017-03-26T23:12:41Z</time>
      </trkpt>
      <trkpt lat="45.30661" lon="5.48031">
        <ele>340</ele>
        <time>2017-03-26T23:14:41Z</time>
      </trkpt>
      <trkpt lat="45.30657" lon="5.48026">
        <ele>340</ele>
        <time>2017-03-26T23:16:41Z</time>
      </trkpt>
      <trkpt lat="45.3065" lon="5.48021">
        <ele>339</ele>
        <time>2017-03-26T23:18:41Z</time>
      </trkpt>
      <trkpt lat="45.3063" lon="5.48009">
        <ele>337</ele>
        <time>2017-03-26T23:20:41Z</time>
      </trkpt>
      <trkpt lat="45.30625" lon="5.48008">
        <ele>337</ele>
        <time>2017-03-26T23:22:41Z</time>
      </trkpt>
      <trkpt lat="45.30623" lon="5.48008">
        <ele>337</ele>
        <time>2017-03-26T23:24:41Z</time>
      </trkpt>
      <trkpt lat="45.30605" lon="5.48011">
        <ele>335</ele>
        <time>2017-03-26T23:26:41Z</time>
      </trkpt>
      <trkpt lat="45.3059" lon="5.48012">
        <ele>333</ele>
        <time>2017-03-26T23:28:41Z</time>
      </trkpt>
      <trkpt lat="45.30586" lon="5.48013">
        <ele>333</ele>
        <time>2017-03-26T23:30:41Z</time>
      </trkpt>
      <trkpt lat="45.30574" lon="5.48014">
        <ele>332</ele>
        <time>2017-03-26T23:32:41Z</time>
      </trkpt>
      <trkpt lat="45.30549" lon="5.48018">
        <ele>330</ele>
        <time>2017-03-26T23:34:41Z</time>
      </trkpt>
      <trkpt lat="45.3053" lon="5.48023">
        <ele>329</ele>
        <time>2017-03-26T23:36:41Z</time>
      </trkpt>
      <trkpt lat="45.30522" lon="5.48026">
        <ele>328</ele>
        <time>2017-03-26T23:38:41Z</time>
      </trkpt>
      <trkpt lat="45.30513" lon="5.4803">
        <ele>327</ele>
        <time>2017-03-26T23:40:41Z</time>
      </trkpt>
      <trkpt lat="45.30508" lon="5.48033">
        <ele>326</ele>
        <time>2017-03-26T23:42:41Z</time>
      </trkpt>
      <trkpt lat="45.305" lon="5.48038">
        <ele>325</ele>
        <time>2017-03-26T23:44:41Z</time>
      </trkpt>
      <trkpt lat="45.30474" lon="5.48054">
        <ele>324</ele>
        <time>2017-03-26T23:46:41Z</time>
      </trkpt>
      <trkpt lat="45.30432" lon="5.48075">
        <ele>320</ele>
        <time>2017-03-26T23:48:41Z</time>
      </trkpt>
      <trkpt lat="45.30418" lon="5.48084">
        <ele>318</ele>
        <time>2017-03-26T23:50:41Z</time>
      </trkpt>
      <trkpt lat="45.30388" lon="5.48109">
        <ele>319</ele>
        <time>2017-03-26T23:52:41Z</time>
      </trkpt>
      <trkpt lat="45.30373" lon="5.48124">
        <ele>319</ele>
        <time>2017-03-26T23:54:41Z</time>
      </trkpt>
      <trkpt lat="45.30351" lon="5.48148">
        <ele>315</ele>
        <time>2017-03-26T23:56:41Z</time>
      </trkpt>
      <trkpt lat="45.30335" lon="5.48169">
        <ele>311</ele>
        <time>2017-03-26T23:58:41Z</time>
      </trkpt>
      <trkpt lat="45.30312" lon="5.482">
        <ele>307</ele>
        <time>2017-03-27T00:00:41Z</time>
      </trkpt>
      <trkpt lat="45.30298" lon="5.48215">
        <ele>306</ele>
        <time>2017-03-27T00:02:41Z</time>
      </trkpt>
      <trkpt lat="45.30273" lon="5.48238">
        <ele>304</ele>
        <time>2017-03-27T00:04:41Z</time>
      </trkpt>
      <trkpt lat="45.30262" lon="5.48246">
        <ele>303</ele>
        <time>2017-03-27T00:06:41Z</time>
      </trkpt>
      <trkpt lat="45.30239" lon="5.48257">
        <ele>301</ele>
        <time>2017-03-27T00:08:41Z</time>
      </trkpt>
      <trkpt lat="45.30221" lon="5.48263">
        <ele>299</ele>
        <time>2017-03-27T00:10:41Z</time>
      </trkpt>
      <trkpt lat="45.30208" lon="5.48266">
        <ele>298</ele>
        <time>2017-03-27T00:12:41Z</time>
      </trkpt>
      <trkpt lat="45.30191" lon="5.48267">
        <ele>296</ele>
        <time>2017-03-27T00:14:41Z</time>
      </trkpt>
      <trkpt lat="45.30182" lon="5.4827">
        <ele>295</ele>
        <time>2017-03-27T00:16:41Z</time>
      </trkpt>
      <trkpt lat="45.30173" lon="5.48269">
        <ele>295</ele>
        <time>2017-03-27T00:18:41Z</time>
      </trkpt>
      <trkpt lat="45.30163" lon="5.48267">
        <ele>294</ele>
        <time>2017-03-27T00:20:41Z</time>
      </trkpt>
      <trkpt lat="45.30148" lon="5.48261">
        <ele>292</ele>
        <time>2017-03-27T00:22:41Z</time>
      </trkpt>
      <trkpt lat="45.30127" lon="5.48251">
        <ele>292</ele>
        <time>2017-03-27T00:24:41Z</time>
      </trkpt>
      <trkpt lat="45.30106" lon="5.4824">
        <ele>290</ele>
        <time>2017-03-27T00:26:41Z</time>
      </trkpt>
      <trkpt lat="45.30101" lon="5.48238">
        <ele>290</ele>
        <time>2017-03-27T00:28:41Z</time>
      </trkpt>
      <trkpt lat="45.30079" lon="5.48231">
        <ele>287</ele>
        <time>2017-03-27T00:30:41Z</time>
      </trkpt>
      <trkpt lat="45.30042" lon="5.48224">
        <ele>277</ele>
        <time>2017-03-27T00:32:41Z</time>
      </trkpt>
      <trkpt lat="45.30027" lon="5.48219">
        <ele>273</ele>
        <time>2017-03-27T00:34:41Z</time>
      </trkpt>
      <trkpt lat="45.30027" lon="5.48219">
        <ele>273</ele>
        <time>2017-03-27T00:36:41Z</time>
      </trkpt>
      <trkpt lat="45.30015" lon="5.48215">
        <ele>269</ele>
        <time>2017-03-27T00:38:41Z</time>
      </trkpt>
      <trkpt lat="45.3001" lon="5.48212">
        <ele>268</ele>
        <time>2017-03-27T00:40:41Z</time>
      </trkpt>
      <trkpt lat="45.30002" lon="5.48207">
        <ele>266</ele>
        <time>2017-03-27T00:42:41Z</time>
      </trkpt>
      <trkpt lat="45.29997" lon="5.48203">
        <ele>266</ele>
        <time>2017-03-27T00:44:41Z</time>
      </trkpt>
      <trkpt lat="45.29994" lon="5.48199">
        <ele>266</ele>
        <time>2017-03-27T00:46:41Z</time>
      </trkpt>
      <trkpt lat="45.2999" lon="5.48193">
        <ele>266</ele>
        <time>2017-03-27T00:48:41Z</time>
      </trkpt>
      <trkpt lat="45.29988" lon="5.48186">
        <ele>266</ele>
        <time>2017-03-27T00:50:41Z</time>
      </trkpt>
      <trkpt lat="45.29987" lon="5.48177">
        <ele>267</ele>
        <time>2017-03-27T00:52:41Z</time>
      </trkpt>
      <trkpt lat="45.29987" lon="5.48167">
        <ele>268</ele>
        <time>2017-03-27T00:54:41Z</time>
      </trkpt>
      <trkpt lat="45.29988" lon="5.48155">
        <ele>269</ele>
        <time>2017-03-27T00:56:41Z</time>
      </trkpt>
      <trkpt lat="45.29992" lon="5.48135">
        <ele>270</ele>
        <time>2017-03-27T00:58:41Z</time>
      </trkpt>
      <trkpt lat="45.29994" lon="5.48129">
        <ele>271</ele>
        <time>2017-03-27T01:00:41Z</time>
      </trkpt>
      <trkpt lat="45.29996" lon="5.48116">
        <ele>271</ele>
        <time>2017-03-27T01:02:41Z</time>
      </trkpt>
      <trkpt lat="45.29999" lon="5.48102">
        <ele>271</ele>
        <time>2017-03-27T01:04:41Z</time>
      </trkpt>
      <trkpt lat="45.30001" lon="5.48087">
        <ele>271</ele>
        <time>2017-03-27T01:06:41Z</time>
      </trkpt>
      <trkpt lat="45.30001" lon="5.4808">
        <ele>272</ele>
        <time>2017-03-27T01:08:41Z</time>
      </trkpt>
      <trkpt lat="45.30001" lon="5.48078">
        <ele>273</ele>
        <time>2017-03-27T01:10:41Z</time>
      </trkpt>
      <trkpt lat="45.30001" lon="5.48075">
        <ele>273</ele>
        <time>2017-03-27T01:12:41Z</time>
      </trkpt>
      <trkpt lat="45.3" lon="5.48073">
        <ele>273</ele>
        <time>2017-03-27T01:14:41Z</time>
      </trkpt>
      <trkpt lat="45.3" lon="5.48072">
        <ele>274</ele>
        <time>2017-03-27T01:16:41Z</time>
      </trkpt>
      <trkpt lat="45.29998" lon="5.48071">
        <ele>274</ele>
        <time>2017-03-27T01:18:41Z</time>
      </trkpt>
      <trkpt lat="45.29996" lon="5.4807">
        <ele>274</ele>
        <time>2017-03-27T01:20:41Z</time>
      </trkpt>
      <trkpt lat="45.29992" lon="5.48067">
        <ele>275</ele>
        <time>2017-03-27T01:22:41Z</time>
      </trkpt>
      <trkpt lat="45.29992" lon="5.48067">
        <ele>275</ele>
        <time>2017-03-27T01:24:41Z</time>
      </trkpt>
      <trkpt lat="45.29991" lon="5.48059">
        <ele>277</ele>
        <time>2017-03-27T01:26:41Z</time>
      </trkpt>
      <trkpt lat="45.29989" lon="5.4805">
        <ele>279</ele>
        <time>2017-03-27T01:28:41Z</time>
      </trkpt>
      <trkpt lat="45.29987" lon="5.48043">
        <ele>280</ele>
        <time>2017-03-27T01:30:41Z</time>
      </trkpt>
      <trkpt lat="45.29983" lon="5.48036">
        <ele>282</ele>
        <time>2017-03-27T01:32:41Z</time>
      </trkpt>
      <trkpt lat="45.29976" lon="5.48028">
        <ele>283</ele>
        <time>2017-03-27T01:34:41Z</time>
      </trkpt>
      <trkpt lat="45.29971" lon="5.48023">
        <ele>284</ele>
        <time>2017-03-27T01:36:41Z</time>
      </trkpt>
      <trkpt lat="45.29966" lon="5.48019">
        <ele>285</ele>
        <time>2017-03-27T01:38:41Z</time>
      </trkpt>
      <trkpt lat="45.29961" lon="5.48014">
        <ele>285</ele>
        <time>2017-03-27T01:40:41Z</time>
      </trkpt>
      <trkpt lat="45.29957" lon="5.48009">
        <ele>286</ele>
        <time>2017-03-27T01:42:41Z</time>
      </trkpt>
      <trkpt lat="45.29953" lon="5.48004">
        <ele>287</ele>
        <time>2017-03-27T01:44:41Z</time>
      </trkpt>
      <trkpt lat="45.29947" lon="5.47998">
        <ele>287</ele>
        <time>2017-03-27T01:46:41Z</time>
      </trkpt>
      <trkpt lat="45.29943" lon="5.47992">
        <ele>288</ele>
        <time>2017-03-27T01:48:41Z</time>
      </trkpt>
      <trkpt lat="45.29939" lon="5.47986">
        <ele>289</ele>
        <time>2017-03-27T01:50:41Z</time>
      </trkpt>
      <trkpt lat="45.29934" lon="5.47978">
        <ele>290</ele>
        <time>2017-03-27T01:52:41Z</time>
      </trkpt>
      <trkpt lat="45.2993" lon="5.47973">
        <ele>290</ele>
        <time>2017-03-27T01:54:41Z</time>
      </trkpt>
      <trkpt lat="45.29925" lon="5.47967">
        <ele>290</ele>
        <time>2017-03-27T01:56:41Z</time>
      </trkpt>
      <trkpt lat="45.2992" lon="5.47961">
        <ele>289</ele>
        <time>2017-03-27T01:58:41Z</time>
      </trkpt>
      <trkpt lat="45.29916" lon="5.47957">
        <ele>289</ele>
        <time>2017-03-27T02:00:41Z</time>
      </trkpt>
      <trkpt lat="45.2991" lon="5.47952">
        <ele>290</ele>
        <time>2017-03-27T02:02:41Z</time>
      </trkpt>
      <trkpt lat="45.29905" lon="5.47948">
        <ele>290</ele>
        <time>2017-03-27T02:04:41Z</time>
      </trkpt>
      <trkpt lat="45.29901" lon="5.47945">
        <ele>291</ele>
        <time>2017-03-27T02:06:41Z</time>
      </trkpt>
      <trkpt lat="45.29895" lon="5.47941">
        <ele>291</ele>
        <time>2017-03-27T02:08:41Z</time>
      </trkpt>
      <trkpt lat="45.2989" lon="5.47938">
        <ele>292</ele>
        <time>2017-03-27T02:10:41Z</time>
      </trkpt>
      <trkpt lat="45.29886" lon="5.47934">
        <ele>292</ele>
        <time>2017-03-27T02:12:41Z</time>
      </trkpt>
      <trkpt lat="45.29882" lon="5.4793">
        <ele>292</ele>
        <time>2017-03-27T02:14:41Z</time>
      </trkpt>
      <trkpt lat="45.29878" lon="5.47925">
        <ele>293</ele>
        <time>2017-03-27T02:16:41Z</time>
      </trkpt>
      <trkpt lat="45.29874" lon="5.47919">
        <ele>293</ele>
        <time>2017-03-27T02:18:41Z</time>
      </trkpt>
      <trkpt lat="45.29871" lon="5.47915">
        <ele>293</ele>
        <time>2017-03-27T02:20:41Z</time>
      </trkpt>
      <trkpt lat="45.29867" lon="5.4791">
        <ele>294</ele>
        <time>2017-03-27T02:22:41Z</time>
      </trkpt>
      <trkpt lat="45.29863" lon="5.47904">
        <ele>294</ele>
        <time>2017-03-27T02:24:41Z</time>
      </trkpt>
      <trkpt lat="45.29859" lon="5.47898">
        <ele>294</ele>
        <time>2017-03-27T02:26:41Z</time>
      </trkpt>
      <trkpt lat="45.29856" lon="5.47891">
        <ele>294</ele>
        <time>2017-03-27T02:28:41Z</time>
      </trkpt>
      <trkpt lat="45.29853" lon="5.47885">
        <ele>295</ele>
        <time>2017-03-27T02:30:41Z</time>
      </trkpt>
      <trkpt lat="45.2985" lon="5.47879">
        <ele>294</ele>
        <time>2017-03-27T02:32:41Z</time>
      </trkpt>
      <trkpt lat="45.29847" lon="5.47873">
        <ele>294</ele>
        <time>2017-03-27T02:34:41Z</time>
      </trkpt>
      <trkpt lat="45.29845" lon="5.47868">
        <ele>294</ele>
        <time>2017-03-27T02:36:41Z</time>
      </trkpt>
      <trkpt lat="45.29843" lon="5.47864">
        <ele>294</ele>
        <time>2017-03-27T02:38:41Z</time>
      </trkpt>
      <trkpt lat="45.2984" lon="5.47858">
        <ele>293</ele>
        <time>2017-03-27T02:40:41Z</time>
      </trkpt>
      <trkpt lat="45.29838" lon="5.47853">
        <ele>293</ele>
        <time>2017-03-27T02:42:41Z</time>
      </trkpt>
      <trkpt lat="45.29835" lon="5.47847">
        <ele>293</ele>
        <time>2017-03-27T02:44:41Z</time>
      </trkpt>
      <trkpt lat="45.29831" lon="5.4784">
        <ele>292</ele>
        <time>2017-03-27T02:46:41Z</time>
      </trkpt>
      <trkpt lat="45.29827" lon="5.47833">
        <ele>293</ele>
        <time>2017-03-27T02:48:41Z</time>
      </trkpt>
      <trkpt lat="45.29823" lon="5.47826">
        <ele>295</ele>
        <time>2017-03-27T02:50:41Z</time>
      </trkpt>
      <trkpt lat="45.29818" lon="5.47819">
        <ele>297</ele>
        <time>2017-03-27T02:52:41Z</time>
      </trkpt>
      <trkpt lat="45.29811" lon="5.47808">
        <ele>299</ele>
        <time>2017-03-27T02:54:41Z</time>
      </trkpt>
      <trkpt lat="45.29805" lon="5.47799">
        <ele>301</ele>
        <time>2017-03-27T02:56:41Z</time>
      </trkpt>
      <trkpt lat="45.29798" lon="5.4779">
        <ele>302</ele>
        <time>2017-03-27T02:58:41Z</time>
      </trkpt>
      <trkpt lat="45.29794" lon="5.47785">
        <ele>302</ele>
        <time>2017-03-27T03:00:41Z</time>
      </trkpt>
      <trkpt lat="45.29788" lon="5.47779">
        <ele>303</ele>
        <time>2017-03-27T03:02:41Z</time>
      </trkpt>
      <trkpt lat="45.29781" lon="5.47774">
        <ele>303</ele>
        <time>2017-03-27T03:04:41Z</time>
      </trkpt>
      <trkpt lat="45.2977" lon="5.47767">
        <ele>302</ele>
        <time>2017-03-27T03:06:41Z</time>
      </trkpt>
      <trkpt lat="45.29762" lon="5.47764">
        <ele>302</ele>
        <time>2017-03-27T03:08:41Z</time>
      </trkpt>
      <trkpt lat="45.29753" lon="5.47763">
        <ele>301</ele>
        <time>2017-03-27T03:10:41Z</time>
      </trkpt>
      <trkpt lat="45.29747" lon="5.47761">
        <ele>300</ele>
        <time>2017-03-27T03:12:41Z</time>
      </trkpt>
      <trkpt lat="45.29741" lon="5.4776">
        <ele>300</ele>
        <time>2017-03-27T03:14:41Z</time>
      </trkpt>
      <trkpt lat="45.29713" lon="5.47753">
        <ele>299</ele>
        <time>2017-03-27T03:16:41Z</time>
      </trkpt>
      <trkpt lat="45.29689" lon="5.47744">
        <ele>299</ele>
        <time>2017-03-27T03:18:41Z</time>
      </trkpt>
      <trkpt lat="45.29682" lon="5.47742">
        <ele>298</ele>
        <time>2017-03-27T03:20:41Z</time>
      </trkpt>
      <trkpt lat="45.29671" lon="5.4774">
        <ele>298</ele>
        <time>2017-03-27T03:22:41Z</time>
      </trkpt>
      <trkpt lat="45.29671" lon="5.4774">
        <ele>298</ele>
        <time>2017-03-27T03:24:41Z</time>
      </trkpt>
      <trkpt lat="45.29666" lon="5.47753">
        <ele>298</ele>
        <time>2017-03-27T03:26:41Z</time>
      </trkpt>
      <trkpt lat="45.29663" lon="5.47765">
        <ele>298</ele>
        <time>2017-03-27T03:28:41Z</time>
      </trkpt>
      <trkpt lat="45.29643" lon="5.47831">
        <ele>296</ele>
        <time>2017-03-27T03:30:41Z</time>
      </trkpt>
      <trkpt lat="45.29629" lon="5.47878">
        <ele>294</ele>
        <time>2017-03-27T03:32:41Z</time>
      </trkpt>
      <trkpt lat="45.29626" lon="5.47892">
        <ele>293</ele>
        <time>2017-03-27T03:34:41Z</time>
      </trkpt>
      <trkpt lat="45.29622" lon="5.47909">
        <ele>292</ele>
        <time>2017-03-27T03:36:41Z</time>
      </trkpt>
      <trkpt lat="45.29622" lon="5.47909">
        <ele>292</ele>
        <time>2017-03-27T03:38:41Z</time>
      </trkpt>
      <trkpt lat="45.29607" lon="5.47907">
        <ele>291</ele>
        <time>2017-03-27T03:40:41Z</time>
      </trkpt>
      <trkpt lat="45.29596" lon="5.47905">
        <ele>291</ele>
        <time>2017-03-27T03:42:41Z</time>
      </trkpt>
      <trkpt lat="45.29553" lon="5.47891">
        <ele>289</ele>
        <time>2017-03-27T03:44:41Z</time>
      </trkpt>
      <trkpt lat="45.29547" lon="5.47892">
        <ele>289</ele>
        <time>2017-03-27T03:46:41Z</time>
      </trkpt>
      <trkpt lat="45.29547" lon="5.47892">
        <ele>289</ele>
        <time>2017-03-27T03:48:41Z</time>
      </trkpt>
      <trkpt lat="45.29542" lon="5.47892">
        <ele>288</ele>
        <time>2017-03-27T03:50:41Z</time>
      </trkpt>
      <trkpt lat="45.2953" lon="5.47892">
        <ele>287</ele>
        <time>2017-03-27T03:52:41Z</time>
      </trkpt>
      <trkpt lat="45.29523" lon="5.4789">
        <ele>287</ele>
        <time>2017-03-27T03:54:41Z</time>
      </trkpt>
      <trkpt lat="45.29518" lon="5.47889">
        <ele>287</ele>
        <time>2017-03-27T03:56:41Z</time>
      </trkpt>
      <trkpt lat="45.29512" lon="5.47889">
        <ele>286</ele>
        <time>2017-03-27T03:58:41Z</time>
      </trkpt>
      <trkpt lat="45.29505" lon="5.4789">
        <ele>286</ele>
        <time>2017-03-27T04:00:41Z</time>
      </trkpt>
      <trkpt lat="45.29499" lon="5.47893">
        <ele>285</ele>
        <time>2017-03-27T04:02:41Z</time>
      </trkpt>
      <trkpt lat="45.29494" lon="5.47897">
        <ele>285</ele>
        <time>2017-03-27T04:04:41Z</time>
      </trkpt>
      <trkpt lat="45.29489" lon="5.47904">
        <ele>284</ele>
        <time>2017-03-27T04:06:41Z</time>
      </trkpt>
      <trkpt lat="45.29484" lon="5.47916">
        <ele>283</ele>
        <time>2017-03-27T04:08:41Z</time>
      </trkpt>
      <trkpt lat="45.29479" lon="5.47929">
        <ele>280</ele>
        <time>2017-03-27T04:10:41Z</time>
      </trkpt>
      <trkpt lat="45.29473" lon="5.4794">
        <ele>277</ele>
        <time>2017-03-27T04:12:41Z</time>
      </trkpt>
      <trkpt lat="45.29468" lon="5.47951">
        <ele>274</ele>
        <time>2017-03-27T04:14:41Z</time>
      </trkpt>
      <trkpt lat="45.29464" lon="5.47959">
        <ele>272</ele>
        <time>2017-03-27T04:16:41Z</time>
      </trkpt>
      <trkpt lat="45.29459" lon="5.47968">
        <ele>270</ele>
        <time>2017-03-27T04:18:41Z</time>
      </trkpt>
      <trkpt lat="45.29449" lon="5.47981">
        <ele>266</ele>
        <time>2017-03-27T04:20:41Z</time>
      </trkpt>
      <trkpt lat="45.29446" lon="5.47986">
        <ele>265</ele>
        <time>2017-03-27T04:22:41Z</time>
      </trkpt>
      <trkpt lat="45.29439" lon="5.47994">
        <ele>262</ele>
        <time>2017-03-27T04:24:41Z</time>
      </trkpt>
      <trkpt lat="45.29422" lon="5.48014">
        <ele>256</ele>
        <time>2017-03-27T04:26:41Z</time>
      </trkpt>
      <trkpt lat="45.29415" lon="5.48025">
        <ele>253</ele>
        <time>2017-03-27T04:28:41Z</time>
      </trkpt>
      <trkpt lat="45.2941" lon="5.48034">
        <ele>251</ele>
        <time>2017-03-27T04:30:41Z</time>
      </trkpt>
      <trkpt lat="45.29407" lon="5.48038">
        <ele>250</ele>
        <time>2017-03-27T04:32:41Z</time>
      </trkpt>
      <trkpt lat="45.29405" lon="5.4804">
        <ele>250</ele>
        <time>2017-03-27T04:34:41Z</time>
      </trkpt>
      <trkpt lat="45.29398" lon="5.48045">
        <ele>248</ele>
        <time>2017-03-27T04:36:41Z</time>
      </trkpt>
      <trkpt lat="45.29389" lon="5.48045">
        <ele>248</ele>
        <time>2017-03-27T04:38:41Z</time>
      </trkpt>
      <trkpt lat="45.29378" lon="5.48049">
        <ele>247</ele>
        <time>2017-03-27T04:40:41Z</time>
      </trkpt>
      <trkpt lat="45.29368" lon="5.48055">
        <ele>245</ele>
        <time>2017-03-27T04:42:41Z</time>
      </trkpt>
      <trkpt lat="45.29362" lon="5.48061">
        <ele>244</ele>
        <time>2017-03-27T04:44:41Z</time>
      </trkpt>
      <trkpt lat="45.29354" lon="5.4807">
        <ele>242</ele>
        <time>2017-03-27T04:46:41Z</time>
      </trkpt>
      <trkpt lat="45.29354" lon="5.4807">
        <ele>242</ele>
        <time>2017-03-27T04:48:41Z</time>
      </trkpt>
      <trkpt lat="45.29354" lon="5.48076">
        <ele>241</ele>
        <time>2017-03-27T04:50:41Z</time>
      </trkpt>
      <trkpt lat="45.29354" lon="5.48095">
        <ele>239</ele>
        <time>2017-03-27T04:52:41Z</time>
      </trkpt>
      <trkpt lat="45.29356" lon="5.48146">
        <ele>236</ele>
        <time>2017-03-27T04:54:41Z</time>
      </trkpt>
      <trkpt lat="45.2937" lon="5.48172">
        <ele>233</ele>
        <time>2017-03-27T04:56:41Z</time>
      </trkpt>
      <trkpt lat="45.29374" lon="5.48182">
        <ele>233</ele>
        <time>2017-03-27T04:58:41Z</time>
      </trkpt>
      <trkpt lat="45.29383" lon="5.48199">
        <ele>231</ele>
        <time>2017-03-27T05:00:41Z</time>
      </trkpt>
      <trkpt lat="45.29388" lon="5.4821">
        <ele>231</ele>
        <time>2017-03-27T05:02:41Z</time>
      </trkpt>
      <trkpt lat="45.29393" lon="5.48223">
        <ele>230</ele>
        <time>2017-03-27T05:04:41Z</time>
      </trkpt>
      <trkpt lat="45.29404" lon="5.4826">
        <ele>229</ele>
        <time>2017-03-27T05:06:41Z</time>
      </trkpt>
      <trkpt lat="45.29404" lon="5.4826">
        <ele>229</ele>
        <time>2017-03-27T05:08:41Z</time>
      </trkpt>
      <trkpt lat="45.29419" lon="5.48303">
        <ele>229</ele>
        <time>2017-03-27T05:10:41Z</time>
      </trkpt>
      <trkpt lat="45.29425" lon="5.48323">
        <ele>229</ele>
        <time>2017-03-27T05:12:41Z</time>
      </trkpt>
      <trkpt lat="45.29429" lon="5.48334">
        <ele>229</ele>
        <time>2017-03-27T05:14:41Z</time>
      </trkpt>
      <trkpt lat="45.29433" lon="5.48341">
        <ele>228</ele>
        <time>2017-03-27T05:16:41Z</time>
      </trkpt>
      <trkpt lat="45.29436" lon="5.4835">
        <ele>228</ele>
        <time>2017-03-27T05:18:41Z</time>
      </trkpt>
      <trkpt lat="45.29438" lon="5.48362">
        <ele>228</ele>
        <time>2017-03-27T05:20:41Z</time>
      </trkpt>
      <trkpt lat="45.29441" lon="5.48396">
        <ele>228</ele>
        <time>2017-03-27T05:22:41Z</time>
      </trkpt>
      <trkpt lat="45.29441" lon="5.48396">
        <ele>228</ele>
        <time>2017-03-27T05:24:41Z</time>
      </trkpt>
      <trkpt lat="45.2945" lon="5.48394">
        <ele>228</ele>
        <time>2017-03-27T05:26:41Z</time>
      </trkpt>
      <trkpt lat="45.29463" lon="5.48393">
        <ele>227</ele>
        <time>2017-03-27T05:28:41Z</time>
      </trkpt>
      <trkpt lat="45.29483" lon="5.48393">
        <ele>226</ele>
        <time>2017-03-27T05:30:41Z</time>
      </trkpt>
      <trkpt lat="45.29491" lon="5.48393">
        <ele>226</ele>
        <time>2017-03-27T05:32:41Z</time>
      </trkpt>
      <trkpt lat="45.29504" lon="5.48393">
        <ele>225</ele>
        <time>2017-03-27T05:34:41Z</time>
      </trkpt>
      <trkpt lat="45.29528" lon="5.48389">
        <ele>226</ele>
        <time>2017-03-27T05:36:41Z</time>
      </trkpt>
      <trkpt lat="45.29542" lon="5.48384">
        <ele>226</ele>
        <time>2017-03-27T05:38:41Z</time>
      </trkpt>
      <trkpt lat="45.2955" lon="5.4838">
        <ele>226</ele>
        <time>2017-03-27T05:40:41Z</time>
      </trkpt>
      <trkpt lat="45.29575" lon="5.48369">
        <ele>226</ele>
        <time>2017-03-27T05:42:41Z</time>
      </trkpt>
      <trkpt lat="45.29579" lon="5.48367">
        <ele>226</ele>
        <time>2017-03-27T05:44:41Z</time>
      </trkpt>
      <trkpt lat="45.29579" lon="5.48367">
        <ele>226</ele>
        <time>2017-03-27T05:46:41Z</time>
      </trkpt>
      <trkpt lat="45.29581" lon="5.48374">
        <ele>226</ele>
        <time>2017-03-27T05:48:41Z</time>
      </trkpt>
      <trkpt lat="45.29584" lon="5.48379">
        <ele>226</ele>
        <time>2017-03-27T05:50:41Z</time>
      </trkpt>
      <trkpt lat="45.29589" lon="5.48384">
        <ele>226</ele>
        <time>2017-03-27T05:52:41Z</time>
      </trkpt>
      <trkpt lat="45.29593" lon="5.48387">
        <ele>226</ele>
        <time>2017-03-27T05:54:41Z</time>
      </trkpt>
      <trkpt lat="45.29597" lon="5.48389">
        <ele>226</ele>
        <time>2017-03-27T05:56:41Z</time>
      </trkpt>
      <trkpt lat="45.29599" lon="5.4839">
        <ele>226</ele>
        <time>2017-03-27T05:58:41Z</time>
      </trkpt>
      <trkpt lat="45.29624" lon="5.48405">
        <ele>225</ele>
        <time>2017-03-27T06:00:41Z</time>
      </trkpt>
      <trkpt lat="45.29635" lon="5.48413">
        <ele>224</ele>
        <time>2017-03-27T06:02:41Z</time>
      </trkpt>
      <trkpt lat="45.29659" lon="5.48427">
        <ele>222</ele>
        <time>2017-03-27T06:04:41Z</time>
      </trkpt>
      <trkpt lat="45.29697" lon="5.48446">
        <ele>223</ele>
        <time>2017-03-27T06:06:41Z</time>
      </trkpt>
      <trkpt lat="45.29711" lon="5.48454">
        <ele>224</ele>
        <time>2017-03-27T06:08:41Z</time>
      </trkpt>
      <trkpt lat="45.29726" lon="5.48462">
        <ele>225</ele>
        <time>2017-03-27T06:10:41Z</time>
      </trkpt>
      <trkpt lat="45.29744" lon="5.48473">
        <ele>225</ele>
        <time>2017-03-27T06:12:41Z</time>
      </trkpt>
      <trkpt lat="45.29755" lon="5.48478">
        <ele>225</ele>
        <time>2017-03-27T06:14:41Z</time>
      </trkpt>
      <trkpt lat="45.29763" lon="5.48482">
        <ele>225</ele>
        <time>2017-03-27T06:16:41Z</time>
      </trkpt>
      <trkpt lat="45.29776" lon="5.48487">
        <ele>224</ele>
        <time>2017-03-27T06:18:41Z</time>
      </trkpt>
      <trkpt lat="45.2979" lon="5.48493">
        <ele>222</ele>
        <time>2017-03-27T06:20:41Z</time>
      </trkpt>
      <trkpt lat="45.2979" lon="5.48493">
        <ele>222</ele>
        <time>2017-03-27T06:22:41Z</time>
      </trkpt>
      <trkpt lat="45.2979" lon="5.48487">
        <ele>223</ele>
        <time>2017-03-27T06:24:41Z</time>
      </trkpt>
      <trkpt lat="45.29789" lon="5.48478">
        <ele>224</ele>
        <time>2017-03-27T06:26:41Z</time>
      </trkpt>
      <trkpt lat="45.29789" lon="5.48478">
        <ele>224</ele>
        <time>2017-03-27T06:28:41Z</time>
      </trkpt>
      <trkpt lat="45.29798" lon="5.48475">
        <ele>224</ele>
        <time>2017-03-27T06:30:41Z</time>
      </trkpt>
      <trkpt lat="45.29811" lon="5.4847">
        <ele>224</ele>
        <time>2017-03-27T06:32:41Z</time>
      </trkpt>
      <trkpt lat="45.29828" lon="5.48465">
        <ele>225</ele>
        <time>2017-03-27T06:34:41Z</time>
      </trkpt>
      <trkpt lat="45.29835" lon="5.48461">
        <ele>225</ele>
        <time>2017-03-27T06:36:41Z</time>
      </trkpt>
      <trkpt lat="45.29844" lon="5.48454">
        <ele>226</ele>
        <time>2017-03-27T06:38:41Z</time>
      </trkpt>
      <trkpt lat="45.2985" lon="5.48449">
        <ele>227</ele>
        <time>2017-03-27T06:40:41Z</time>
      </trkpt>
      <trkpt lat="45.29858" lon="5.48441">
        <ele>228</ele>
        <time>2017-03-27T06:42:41Z</time>
      </trkpt>
      <trkpt lat="45.29864" lon="5.48433">
        <ele>229</ele>
        <time>2017-03-27T06:44:41Z</time>
      </trkpt>
      <trkpt lat="45.29872" lon="5.48424">
        <ele>231</ele>
        <time>2017-03-27T06:46:41Z</time>
      </trkpt>
      <trkpt lat="45.29881" lon="5.48412">
        <ele>232</ele>
        <time>2017-03-27T06:48:41Z</time>
      </trkpt>
      <trkpt lat="45.29886" lon="5.48407">
        <ele>233</ele>
        <time>2017-03-27T06:50:41Z</time>
      </trkpt>
      <trkpt lat="45.2989" lon="5.48401">
        <ele>233</ele>
        <time>2017-03-27T06:52:41Z</time>
      </trkpt>
      <trkpt lat="45.29892" lon="5.48397">
        <ele>234</ele>
        <time>2017-03-27T06:54:41Z</time>
      </trkpt>
      <trkpt lat="45.29893" lon="5.48394">
        <ele>234</ele>
        <time>2017-03-27T06:56:41Z</time>
      </trkpt>
      <trkpt lat="45.29893" lon="5.48394">
        <ele>234</ele>
        <time>2017-03-27T06:58:41Z</time>
      </trkpt>
      <trkpt lat="45.29899" lon="5.48397">
        <ele>234</ele>
        <time>2017-03-27T07:00:41Z</time>
      </trkpt>
      <trkpt lat="45.29937" lon="5.4841">
        <ele>234</ele>
        <time>2017-03-27T07:02:41Z</time>
      </trkpt>
      <trkpt lat="45.29948" lon="5.48414">
        <ele>234</ele>
        <time>2017-03-27T07:04:41Z</time>
      </trkpt>
      <trkpt lat="45.29961" lon="5.48418">
        <ele>235</ele>
        <time>2017-03-27T07:06:41Z</time>
      </trkpt>
      <trkpt lat="45.29978" lon="5.48426">
        <ele>235</ele>
        <time>2017-03-27T07:08:41Z</time>
      </trkpt>
      <trkpt lat="45.29997" lon="5.48433">
        <ele>235</ele>
        <time>2017-03-27T07:10:41Z</time>
      </trkpt>
      <trkpt lat="45.30013" lon="5.48442">
        <ele>234</ele>
        <time>2017-03-27T07:12:41Z</time>
      </trkpt>
      <trkpt lat="45.30029" lon="5.48449">
        <ele>234</ele>
        <time>2017-03-27T07:14:41Z</time>
      </trkpt>
      <trkpt lat="45.30036" lon="5.48456">
        <ele>233</ele>
        <time>2017-03-27T07:16:41Z</time>
      </trkpt>
      <trkpt lat="45.30048" lon="5.48469">
        <ele>232</ele>
        <time>2017-03-27T07:18:41Z</time>
      </trkpt>
      <trkpt lat="45.30067" lon="5.48491">
        <ele>230</ele>
        <time>2017-03-27T07:20:41Z</time>
      </trkpt>
      <trkpt lat="45.30089" lon="5.48515">
        <ele>230</ele>
        <time>2017-03-27T07:22:41Z</time>
      </trkpt>
      <trkpt lat="45.30107" lon="5.48536">
        <ele>230</ele>
        <time>2017-03-27T07:24:41Z</time>
      </trkpt>
      <trkpt lat="45.30126" lon="5.48562">
        <ele>229</ele>
        <time>2017-03-27T07:26:41Z</time>
      </trkpt>
      <trkpt lat="45.30146" lon="5.48593">
        <ele>227</ele>
        <time>2017-03-27T07:28:41Z</time>
      </trkpt>
      <trkpt lat="45.30161" lon="5.48615">
        <ele>228</ele>
        <time>2017-03-27T07:30:41Z</time>
      </trkpt>
      <trkpt lat="45.30165" lon="5.48622">
        <ele>228</ele>
        <time>2017-03-27T07:32:41Z</time>
      </trkpt>
      <trkpt lat="45.30172" lon="5.48633">
        <ele>228</ele>
        <time>2017-03-27T07:34:41Z</time>
      </trkpt>
      <trkpt lat="45.30172" lon="5.48633">
        <ele>228</ele>
        <time>2017-03-27T07:36:41Z</time>
      </trkpt>
      <trkpt lat="45.30172" lon="5.48635">
        <ele>228</ele>
        <time>2017-03-27T07:38:41Z</time>
      </trkpt>
      <trkpt lat="45.30172" lon="5.48636">
        <ele>228</ele>
        <time>2017-03-27T07:40:41Z</time>
      </trkpt>
      <trkpt lat="45.30171" lon="5.48638">
        <ele>228</ele>
        <time>2017-03-27T07:42:41Z</time>
      </trkpt>
      <trkpt lat="45.30171" lon="5.4864">
        <ele>228</ele>
        <time>2017-03-27T07:44:41Z</time>
      </trkpt>
      <trkpt lat="45.30171" lon="5.48642">
        <ele>228</ele>
        <time>2017-03-27T07:46:41Z</time>
      </trkpt>
      <trkpt lat="45.30172" lon="5.48643">
        <ele>228</ele>
        <time>2017-03-27T07:48:41Z</time>
      </trkpt>
      <trkpt lat="45.30172" lon="5.48645">
        <ele>228</ele>
        <time>2017-03-27T07:50:41Z</time>
      </trkpt>
      <trkpt lat="45.30173" lon="5.48645">
        <ele>228</ele>
        <time>2017-03-27T07:52:41Z</time>
      </trkpt>
      <trkpt lat="45.30174" lon="5.48646">
        <ele>228</ele>
        <time>2017-03-27T07:54:41Z</time>
      </trkpt>
      <trkpt lat="45.30178" lon="5.48647">
        <ele>228</ele>
        <time>2017-03-27T07:56:41Z</time>
      </trkpt>
      <trkpt lat="45.30179" lon="5.48647">
        <ele>228</ele>
        <time>2017-03-27T07:58:41Z</time>
      </trkpt>
      <trkpt lat="45.3018" lon="5.48646">
        <ele>228</ele>
        <time>2017-03-27T08:00:41Z</time>
      </trkpt>
      <trkpt lat="45.30181" lon="5.48645">
        <ele>229</ele>
        <time>2017-03-27T08:02:41Z</time>
      </trkpt>
      <trkpt lat="45.30181" lon="5.48644">
        <ele>229</ele>
        <time>2017-03-27T08:04:41Z</time>
      </trkpt>
      <trkpt lat="45.30182" lon="5.48643">
        <ele>229</ele>
        <time>2017-03-27T08:06:41Z</time>
      </trkpt>
      <trkpt lat="45.30183" lon="5.48642">
        <ele>229</ele>
        <time>2017-03-27T08:08:41Z</time>
      </trkpt>
      <trkpt lat="45.30183" lon="5.48641">
        <ele>229</ele>
        <time>2017-03-27T08:10:41Z</time>
      </trkpt>
      <trkpt lat="45.30194" lon="5.48654">
        <ele>229</ele>
        <time>2017-03-27T08:12:41Z</time>
      </trkpt>
      <trkpt lat="45.30216" lon="5.48684">
        <ele>229</ele>
        <time>2017-03-27T08:14:41Z</time>
      </trkpt>
      <trkpt lat="45.30234" lon="5.4871">
        <ele>227</ele>
        <time>2017-03-27T08:16:41Z</time>
      </trkpt>
      <trkpt lat="45.30241" lon="5.4872">
        <ele>227</ele>
        <time>2017-03-27T08:18:41Z</time>
      </trkpt>
      <trkpt lat="45.30247" lon="5.48729">
        <ele>226</ele>
        <time>2017-03-27T08:20:41Z</time>
      </trkpt>
      <trkpt lat="45.3026" lon="5.48749">
        <ele>225</ele>
        <time>2017-03-27T08:22:41Z</time>
      </trkpt>
      <trkpt lat="45.30287" lon="5.48801">
        <ele>225</ele>
        <time>2017-03-27T08:24:41Z</time>
      </trkpt>
      <trkpt lat="45.30293" lon="5.48814">
        <ele>225</ele>
        <time>2017-03-27T08:26:41Z</time>
      </trkpt>
      <trkpt lat="45.30297" lon="5.48831">
        <ele>224</ele>
        <time>2017-03-27T08:28:41Z</time>
      </trkpt>
      <trkpt lat="45.30312" lon="5.48856">
        <ele>222</ele>
        <time>2017-03-27T08:30:41Z</time>
      </trkpt>
      <trkpt lat="45.30322" lon="5.48871">
        <ele>221</ele>
        <time>2017-03-27T08:32:41Z</time>
      </trkpt>
      <trkpt lat="45.30332" lon="5.48883">
        <ele>220</ele>
        <time>2017-03-27T08:34:41Z</time>
      </trkpt>
      <trkpt lat="45.30342" lon="5.48896">
        <ele>219</ele>
        <time>2017-03-27T08:36:41Z</time>
      </trkpt>
      <trkpt lat="45.30387" lon="5.48942">
        <ele>217</ele>
        <time>2017-03-27T08:38:41Z</time>
      </trkpt>
      <trkpt lat="45.30403" lon="5.48958">
        <ele>218</ele>
        <time>2017-03-27T08:40:41Z</time>
      </trkpt>
      <trkpt lat="45.30408" lon="5.48966">
        <ele>218</ele>
        <time>2017-03-27T08:42:41Z</time>
      </trkpt>
      <trkpt lat="45.30409" lon="5.48969">
        <ele>218</ele>
        <time>2017-03-27T08:44:41Z</time>
      </trkpt>
      <trkpt lat="45.3041" lon="5.48971">
        <ele>218</ele>
        <time>2017-03-27T08:46:41Z</time>
      </trkpt>
      <trkpt lat="45.3041" lon="5.48973">
        <ele>218</ele>
        <time>2017-03-27T08:48:41Z</time>
      </trkpt>
      <trkpt lat="45.30411" lon="5.48977">
        <ele>218</ele>
        <time>2017-03-27T08:50:41Z</time>
      </trkpt>
      <trkpt lat="45.30411" lon="5.48984">
        <ele>218</ele>
        <time>2017-03-27T08:52:41Z</time>
      </trkpt>
      <trkpt lat="45.3041" lon="5.48992">
        <ele>218</ele>
        <time>2017-03-27T08:54:41Z</time>
      </trkpt>
      <trkpt lat="45.3041" lon="5.48992">
        <ele>218</ele>
        <time>2017-03-27T08:56:41Z</time>
      </trkpt>
      <trkpt lat="45.30422" lon="5.48994">
        <ele>219</ele>
        <time>2017-03-27T08:58:41Z</time>
      </trkpt>
      <trkpt lat="45.30425" lon="5.48995">
        <ele>219</ele>
        <time>2017-03-27T09:00:41Z</time>
      </trkpt>
      <trkpt lat="45.30427" lon="5.48996">
        <ele>218</ele>
        <time>2017-03-27T09:02:41Z</time>
      </trkpt>
      <trkpt lat="45.30429" lon="5.48997">
        <ele>218</ele>
        <time>2017-03-27T09:04:41Z</time>
      </trkpt>
      <trkpt lat="45.30431" lon="5.48998">
        <ele>218</ele>
        <time>2017-03-27T09:06:41Z</time>
      </trkpt>
      <trkpt lat="45.30432" lon="5.48999">
        <ele>218</ele>
        <time>2017-03-27T09:08:41Z</time>
      </trkpt>
      <trkpt lat="45.30446" lon="5.49014">
        <ele>216</ele>
        <time>2017-03-27T09:10:41Z</time>
      </trkpt>
      <trkpt lat="45.30469" lon="5.49037">
        <ele>214</ele>
        <time>2017-03-27T09:12:41Z</time>
      </trkpt>
      <trkpt lat="45.30474" lon="5.4904">
        <ele>214</ele>
        <time>2017-03-27T09:14:41Z</time>
      </trkpt>
      <trkpt lat="45.30485" lon="5.49052">
        <ele>214</ele>
        <time>2017-03-27T09:16:41Z</time>
      </trkpt>
      <trkpt lat="45.3055" lon="5.49121">
        <ele>214</ele>
        <time>2017-03-27T09:18:41Z</time>
      </trkpt>
      <trkpt lat="45.30564" lon="5.49136">
        <ele>214</ele>
        <time>2017-03-27T09:20:41Z</time>
      </trkpt>
      <trkpt lat="45.30578" lon="5.49154">
        <ele>215</ele>
        <time>2017-03-27T09:22:41Z</time>
      </trkpt>
      <trkpt lat="45.30589" lon="5.49171">
        <ele>215</ele>
        <time>2017-03-27T09:24:41Z</time>
      </trkpt>
      <trkpt lat="45.30613" lon="5.49213">
        <ele>214</ele>
        <time>2017-03-27T09:26:41Z</time>
      </trkpt>
      <trkpt lat="45.30643" lon="5.49264">
        <ele>214</ele>
        <time>2017-03-27T09:28:41Z</time>
      </trkpt>
      <trkpt lat="45.30667" lon="5.49305">
        <ele>216</ele>
        <time>2017-03-27T09:30:41Z</time>
      </trkpt>
      <trkpt lat="45.30695" lon="5.49355">
        <ele>216</ele>
        <time>2017-03-27T09:32:41Z</time>
      </trkpt>
      <trkpt lat="45.30746" lon="5.49441">
        <ele>215</ele>
        <time>2017-03-27T09:34:41Z</time>
      </trkpt>
      <trkpt lat="45.30751" lon="5.49448">
        <ele>215</ele>
        <time>2017-03-27T09:36:41Z</time>
      </trkpt>
      <trkpt lat="45.30755" lon="5.49455">
        <ele>214</ele>
        <time>2017-03-27T09:38:41Z</time>
      </trkpt>
      <trkpt lat="45.30769" lon="5.49474">
        <ele>214</ele>
        <time>2017-03-27T09:40:41Z</time>
      </trkpt>
      <trkpt lat="45.3078" lon="5.49486">
        <ele>214</ele>
        <time>2017-03-27T09:42:41Z</time>
      </trkpt>
      <trkpt lat="45.30821" lon="5.49527">
        <ele>213</ele>
        <time>2017-03-27T09:44:41Z</time>
      </trkpt>
      <trkpt lat="45.30839" lon="5.49543">
        <ele>213</ele>
        <time>2017-03-27T09:46:41Z</time>
      </trkpt>
      <trkpt lat="45.30869" lon="5.49563">
        <ele>213</ele>
        <time>2017-03-27T09:48:41Z</time>
      </trkpt>
      <trkpt lat="45.30883" lon="5.49578">
        <ele>213</ele>
        <time>2017-03-27T09:50:41Z</time>
      </trkpt>
      <trkpt lat="45.30884" lon="5.49579">
        <ele>213</ele>
        <time>2017-03-27T09:52:41Z</time>
      </trkpt>
      <trkpt lat="45.30888" lon="5.49584">
        <ele>213</ele>
        <time>2017-03-27T09:54:41Z</time>
      </trkpt>
      <trkpt lat="45.30888" lon="5.49584">
        <ele>213</ele>
        <time>2017-03-27T09:56:41Z</time>
      </trkpt>
      <trkpt lat="45.30914" lon="5.49542">
        <ele>213</ele>
        <time>2017-03-27T09:58:41Z</time>
      </trkpt>
      <trkpt lat="45.30921" lon="5.49531">
        <ele>214</ele>
        <time>2017-03-27T10:00:41Z</time>
      </trkpt>
      <trkpt lat="45.30938" lon="5.49506">
        <ele>215</ele>
        <time>2017-03-27T10:02:41Z</time>
      </trkpt>
      <trkpt lat="45.30951" lon="5.49486">
        <ele>215</ele>
        <time>2017-03-27T10:04:41Z</time>
      </trkpt>
      <trkpt lat="45.3097" lon="5.49456">
        <ele>216</ele>
        <time>2017-03-27T10:06:41Z</time>
      </trkpt>
      <trkpt lat="45.30978" lon="5.49439">
        <ele>216</ele>
        <time>2017-03-27T10:08:41Z</time>
      </trkpt>
      <trkpt lat="45.30986" lon="5.4942">
        <ele>216</ele>
        <time>2017-03-27T10:10:41Z</time>
      </trkpt>
      <trkpt lat="45.30993" lon="5.49396">
        <ele>216</ele>
        <time>2017-03-27T10:12:41Z</time>
      </trkpt>
      <trkpt lat="45.30998" lon="5.49369">
        <ele>217</ele>
        <time>2017-03-27T10:14:41Z</time>
      </trkpt>
      <trkpt lat="45.31003" lon="5.49328">
        <ele>219</ele>
        <time>2017-03-27T10:16:41Z</time>
      </trkpt>
      <trkpt lat="45.31012" lon="5.49253">
        <ele>223</ele>
        <time>2017-03-27T10:18:41Z</time>
      </trkpt>
      <trkpt lat="45.31017" lon="5.49224">
        <ele>224</ele>
        <time>2017-03-27T10:20:41Z</time>
      </trkpt>
      <trkpt lat="45.31017" lon="5.49222">
        <ele>224</ele>
        <time>2017-03-27T10:22:41Z</time>
      </trkpt>
      <trkpt lat="45.31019" lon="5.49213">
        <ele>224</ele>
        <time>2017-03-27T10:24:41Z</time>
      </trkpt>
      <trkpt lat="45.31024" lon="5.49195">
        <ele>225</ele>
        <time>2017-03-27T10:26:41Z</time>
      </trkpt>
      <trkpt lat="45.31027" lon="5.49188">
        <ele>225</ele>
        <time>2017-03-27T10:28:41Z</time>
      </trkpt>
      <trkpt lat="45.31032" lon="5.49178">
        <ele>226</ele>
        <time>2017-03-27T10:30:41Z</time>
      </trkpt>
      <trkpt lat="45.31059" lon="5.49149">
        <ele>232</ele>
        <time>2017-03-27T10:32:41Z</time>
      </trkpt>
      <trkpt lat="45.31072" lon="5.49131">
        <ele>233</ele>
        <time>2017-03-27T10:34:41Z</time>
      </trkpt>
      <trkpt lat="45.31081" lon="5.49112">
        <ele>232</ele>
        <time>2017-03-27T10:36:41Z</time>
      </trkpt>
      <trkpt lat="45.31088" lon="5.49091">
        <ele>231</ele>
        <time>2017-03-27T10:38:41Z</time>
      </trkpt>
      <trkpt lat="45.3109" lon="5.4908">
        <ele>231</ele>
        <time>2017-03-27T10:40:41Z</time>
      </trkpt>
      <trkpt lat="45.31092" lon="5.49075">
        <ele>232</ele>
        <time>2017-03-27T10:42:41Z</time>
      </trkpt>
      <trkpt lat="45.31093" lon="5.49069">
        <ele>232</ele>
        <time>2017-03-27T10:44:41Z</time>
      </trkpt>
      <trkpt lat="45.31095" lon="5.49045">
        <ele>233</ele>
        <time>2017-03-27T10:46:41Z</time>
      </trkpt>
      <trkpt lat="45.31096" lon="5.49017">
        <ele>233</ele>
        <time>2017-03-27T10:48:41Z</time>
      </trkpt>
      <trkpt lat="45.31094" lon="5.4899">
        <ele>232</ele>
        <time>2017-03-27T10:50:41Z</time>
      </trkpt>
      <trkpt lat="45.3109" lon="5.48969">
        <ele>232</ele>
        <time>2017-03-27T10:52:41Z</time>
      </trkpt>
      <trkpt lat="45.31075" lon="5.48933">
        <ele>231</ele>
        <time>2017-03-27T10:54:41Z</time>
      </trkpt>
      <trkpt lat="45.3107" lon="5.48916">
        <ele>231</ele>
        <time>2017-03-27T10:56:41Z</time>
      </trkpt>
      <trkpt lat="45.31069" lon="5.48909">
        <ele>231</ele>
        <time>2017-03-27T10:58:41Z</time>
      </trkpt>
      <trkpt lat="45.31069" lon="5.48902">
        <ele>231</ele>
        <time>2017-03-27T11:00:41Z</time>
      </trkpt>
      <trkpt lat="45.3107" lon="5.48896">
        <ele>231</ele>
        <time>2017-03-27T11:02:41Z</time>
      </trkpt>
      <trkpt lat="45.31071" lon="5.48889">
        <ele>231</ele>
        <time>2017-03-27T11:04:41Z</time>
      </trkpt>
      <trkpt lat="45.31073" lon="5.48883">
        <ele>231</ele>
        <time>2017-03-27T11:06:41Z</time>
      </trkpt>
      <trkpt lat="45.31077" lon="5.48875">
        <ele>231</ele>
        <time>2017-03-27T11:08:41Z</time>
      </trkpt>
      <trkpt lat="45.31082" lon="5.48869">
        <ele>232</ele>
        <time>2017-03-27T11:10:41Z</time>
      </trkpt>
      <trkpt lat="45.3109" lon="5.48861">
        <ele>234</ele>
        <time>2017-03-27T11:12:41Z</time>
      </trkpt>
      <trkpt lat="45.311" lon="5.48853">
        <ele>236</ele>
        <time>2017-03-27T11:14:41Z</time>
      </trkpt>
      <trkpt lat="45.31121" lon="5.48836">
        <ele>239</ele>
        <time>2017-03-27T11:16:41Z</time>
      </trkpt>
      <trkpt lat="45.31125" lon="5.48831">
        <ele>239</ele>
        <time>2017-03-27T11:18:41Z</time>
      </trkpt>
      <trkpt lat="45.3113" lon="5.48823">
        <ele>240</ele>
        <time>2017-03-27T11:20:41Z</time>
      </trkpt>
      <trkpt lat="45.31152" lon="5.48779">
        <ele>239</ele>
        <time>2017-03-27T11:22:41Z</time>
      </trkpt>
      <trkpt lat="45.31159" lon="5.48768">
        <ele>238</ele>
        <time>2017-03-27T11:24:41Z</time>
      </trkpt>
      <trkpt lat="45.31163" lon="5.4876">
        <ele>237</ele>
        <time>2017-03-27T11:26:41Z</time>
      </trkpt>
      <trkpt lat="45.31175" lon="5.48747">
        <ele>236</ele>
        <time>2017-03-27T11:28:41Z</time>
      </trkpt>
      <trkpt lat="45.312" lon="5.48727">
        <ele>239</ele>
        <time>2017-03-27T11:30:41Z</time>
      </trkpt>
      <trkpt lat="45.31203" lon="5.48724">
        <ele>239</ele>
        <time>2017-03-27T11:32:41Z</time>
      </trkpt>
      <trkpt lat="45.31203" lon="5.48724">
        <ele>239</ele>
        <time>2017-03-27T11:34:41Z</time>
      </trkpt>
      <trkpt lat="45.31226" lon="5.48704">
        <ele>239</ele>
        <time>2017-03-27T11:36:41Z</time>
      </trkpt>
      <trkpt lat="45.31272" lon="5.48667">
        <ele>236</ele>
        <time>2017-03-27T11:38:41Z</time>
      </trkpt>
      <trkpt lat="45.3128" lon="5.48662">
        <ele>238</ele>
        <time>2017-03-27T11:40:41Z</time>
      </trkpt>
      <trkpt lat="45.31288" lon="5.48659">
        <ele>239</ele>
        <time>2017-03-27T11:42:41Z</time>
      </trkpt>
      <trkpt lat="45.313" lon="5.48653">
        <ele>241</ele>
        <time>2017-03-27T11:44:41Z</time>
      </trkpt>
      <trkpt lat="45.31314" lon="5.48646">
        <ele>244</ele>
        <time>2017-03-27T11:46:41Z</time>
      </trkpt>
      <trkpt lat="45.31329" lon="5.48638">
        <ele>248</ele>
        <time>2017-03-27T11:48:41Z</time>
      </trkpt>
      <trkpt lat="45.31337" lon="5.48636">
        <ele>251</ele>
        <time>2017-03-27T11:50:41Z</time>
      </trkpt>
      <trkpt lat="45.31346" lon="5.48636">
        <ele>254</ele>
        <time>2017-03-27T11:52:41Z</time>
      </trkpt>
      <trkpt lat="45.31356" lon="5.48636">
        <ele>258</ele>
        <time>2017-03-27T11:54:41Z</time>
      </trkpt>
      <trkpt lat="45.31366" lon="5.48638">
        <ele>261</ele>
        <time>2017-03-27T11:56:41Z</time>
      </trkpt>
      <trkpt lat="45.31376" lon="5.48642">
        <ele>263</ele>
        <time>2017-03-27T11:58:41Z</time>
      </trkpt>
      <trkpt lat="45.31386" lon="5.48649">
        <ele>265</ele>
        <time>2017-03-27T12:00:41Z</time>
      </trkpt>
      <trkpt lat="45.31405" lon="5.48671">
        <ele>264</ele>
        <time>2017-03-27T12:02:41Z</time>
      </trkpt>
      <trkpt lat="45.31423" lon="5.48695">
        <ele>265</ele>
        <time>2017-03-27T12:04:41Z</time>
      </trkpt>
      <trkpt lat="45.31433" lon="5.48711">
        <ele>266</ele>
        <time>2017-03-27T12:06:41Z</time>
      </trkpt>
      <trkpt lat="45.3144" lon="5.48727">
        <ele>265</ele>
        <time>2017-03-27T12:08:41Z</time>
      </trkpt>
      <trkpt lat="45.31445" lon="5.48746">
        <ele>263</ele>
        <time>2017-03-27T12:10:41Z</time>
      </trkpt>
      <trkpt lat="45.31448" lon="5.48761">
        <ele>263</ele>
        <time>2017-03-27T12:12:41Z</time>
      </trkpt>
      <trkpt lat="45.31451" lon="5.48794">
        <ele>263</ele>
        <time>2017-03-27T12:14:41Z</time>
      </trkpt>
      <trkpt lat="45.31456" lon="5.4882">
        <ele>263</ele>
        <time>2017-03-27T12:16:41Z</time>
      </trkpt>
      <trkpt lat="45.31469" lon="5.48851">
        <ele>265</ele>
        <time>2017-03-27T12:18:41Z</time>
      </trkpt>
      <trkpt lat="45.31483" lon="5.48877">
        <ele>266</ele>
        <time>2017-03-27T12:20:41Z</time>
      </trkpt>
      <trkpt lat="45.31492" lon="5.48893">
        <ele>265</ele>
        <time>2017-03-27T12:22:41Z</time>
      </trkpt>
      <trkpt lat="45.315" lon="5.48907">
        <ele>265</ele>
        <time>2017-03-27T12:24:41Z</time>
      </trkpt>
      <trkpt lat="45.31509" lon="5.48917">
        <ele>266</ele>
        <time>2017-03-27T12:26:41Z</time>
      </trkpt>
      <trkpt lat="45.31522" lon="5.48926">
        <ele>268</ele>
        <time>2017-03-27T12:28:41Z</time>
      </trkpt>
      <trkpt lat="45.31542" lon="5.48946">
        <ele>269</ele>
        <time>2017-03-27T12:30:41Z</time>
      </trkpt>
      <trkpt lat="45.31552" lon="5.48958">
        <ele>268</ele>
        <time>2017-03-27T12:32:41Z</time>
      </trkpt>
      <trkpt lat="45.31562" lon="5.48973">
        <ele>266</ele>
        <time>2017-03-27T12:34:41Z</time>
      </trkpt>
      <trkpt lat="45.31567" lon="5.4898">
        <ele>265</ele>
        <time>2017-03-27T12:36:41Z</time>
      </trkpt>
      <trkpt lat="45.31579" lon="5.48995">
        <ele>263</ele>
        <time>2017-03-27T12:38:41Z</time>
      </trkpt>
      <trkpt lat="45.31588" lon="5.49002">
        <ele>262</ele>
        <time>2017-03-27T12:40:41Z</time>
      </trkpt>
      <trkpt lat="45.31598" lon="5.49005">
        <ele>262</ele>
        <time>2017-03-27T12:42:41Z</time>
      </trkpt>
      <trkpt lat="45.31607" lon="5.49006">
        <ele>263</ele>
        <time>2017-03-27T12:44:41Z</time>
      </trkpt>
      <trkpt lat="45.31628" lon="5.48998">
        <ele>266</ele>
        <time>2017-03-27T12:46:41Z</time>
      </trkpt>
      <trkpt lat="45.31645" lon="5.48996">
        <ele>268</ele>
        <time>2017-03-27T12:48:41Z</time>
      </trkpt>
      <trkpt lat="45.31654" lon="5.48994">
        <ele>269</ele>
        <time>2017-03-27T12:50:41Z</time>
      </trkpt>
      <trkpt lat="45.31664" lon="5.48995">
        <ele>270</ele>
        <time>2017-03-27T12:52:41Z</time>
      </trkpt>
      <trkpt lat="45.31674" lon="5.48997">
        <ele>271</ele>
        <time>2017-03-27T12:54:41Z</time>
      </trkpt>
      <trkpt lat="45.31681" lon="5.48998">
        <ele>272</ele>
        <time>2017-03-27T12:56:41Z</time>
      </trkpt>
      <trkpt lat="45.31695" lon="5.49002">
        <ele>274</ele>
        <time>2017-03-27T12:58:41Z</time>
      </trkpt>
      <trkpt lat="45.31706" lon="5.49005">
        <ele>276</ele>
        <time>2017-03-27T13:00:41Z</time>
      </trkpt>
      <trkpt lat="45.31717" lon="5.49008">
        <ele>277</ele>
        <time>2017-03-27T13:02:41Z</time>
      </trkpt>
      <trkpt lat="45.31727" lon="5.4901">
        <ele>279</ele>
        <time>2017-03-27T13:04:41Z</time>
      </trkpt>
      <trkpt lat="45.31739" lon="5.49018">
        <ele>278</ele>
        <time>2017-03-27T13:06:41Z</time>
      </trkpt>
      <trkpt lat="45.31749" lon="5.49025">
        <ele>278</ele>
        <time>2017-03-27T13:08:41Z</time>
      </trkpt>
      <trkpt lat="45.31756" lon="5.4903">
        <ele>278</ele>
        <time>2017-03-27T13:10:41Z</time>
      </trkpt>
      <trkpt lat="45.31761" lon="5.49034">
        <ele>278</ele>
        <time>2017-03-27T13:12:41Z</time>
      </trkpt>
      <trkpt lat="45.31771" lon="5.49042">
        <ele>279</ele>
        <time>2017-03-27T13:14:41Z</time>
      </trkpt>
      <trkpt lat="45.31787" lon="5.49057">
        <ele>279</ele>
        <time>2017-03-27T13:16:41Z</time>
      </trkpt>
      <trkpt lat="45.318" lon="5.49068">
        <ele>281</ele>
        <time>2017-03-27T13:18:41Z</time>
      </trkpt>
      <trkpt lat="45.31809" lon="5.49079">
        <ele>281</ele>
        <time>2017-03-27T13:20:41Z</time>
      </trkpt>
      <trkpt lat="45.31817" lon="5.49089">
        <ele>281</ele>
        <time>2017-03-27T13:22:41Z</time>
      </trkpt>
      <trkpt lat="45.31823" lon="5.49099">
        <ele>280</ele>
        <time>2017-03-27T13:24:41Z</time>
      </trkpt>
      <trkpt lat="45.31827" lon="5.49103">
        <ele>280</ele>
        <time>2017-03-27T13:26:41Z</time>
      </trkpt>
      <trkpt lat="45.31831" lon="5.49107">
        <ele>280</ele>
        <time>2017-03-27T13:28:41Z</time>
      </trkpt>
      <trkpt lat="45.31836" lon="5.49111">
        <ele>279</ele>
        <time>2017-03-27T13:30:41Z</time>
      </trkpt>
      <trkpt lat="45.31848" lon="5.49117">
        <ele>279</ele>
        <time>2017-03-27T13:32:41Z</time>
      </trkpt>
      <trkpt lat="45.31868" lon="5.49124">
        <ele>280</ele>
        <time>2017-03-27T13:34:41Z</time>
      </trkpt>
      <trkpt lat="45.31876" lon="5.4913">
        <ele>280</ele>
        <time>2017-03-27T13:36:41Z</time>
      </trkpt>
      <trkpt lat="45.31884" lon="5.49137">
        <ele>279</ele>
        <time>2017-03-27T13:38:41Z</time>
      </trkpt>
      <trkpt lat="45.3189" lon="5.49142">
        <ele>279</ele>
        <time>2017-03-27T13:40:41Z</time>
      </trkpt>
      <trkpt lat="45.31899" lon="5.49152">
        <ele>279</ele>
        <time>2017-03-27T13:42:41Z</time>
      </trkpt>
      <trkpt lat="45.31907" lon="5.49161">
        <ele>278</ele>
        <time>2017-03-27T13:44:41Z</time>
      </trkpt>
      <trkpt lat="45.31919" lon="5.4918">
        <ele>277</ele>
        <time>2017-03-27T13:46:41Z</time>
      </trkpt>
      <trkpt lat="45.31931" lon="5.49199">
        <ele>275</ele>
        <time>2017-03-27T13:48:41Z</time>
      </trkpt>
      <trkpt lat="45.3194" lon="5.49212">
        <ele>274</ele>
        <time>2017-03-27T13:50:41Z</time>
      </trkpt>
      <trkpt lat="45.31949" lon="5.49222">
        <ele>274</ele>
        <time>2017-03-27T13:52:41Z</time>
      </trkpt>
      <trkpt lat="45.31958" lon="5.49229">
        <ele>275</ele>
        <time>2017-03-27T13:54:41Z</time>
      </trkpt>
      <trkpt lat="45.31963" lon="5.49234">
        <ele>275</ele>
        <time>2017-03-27T13:56:41Z</time>
      </trkpt>
      <trkpt lat="45.3197" lon="5.49239">
        <ele>275</ele>
        <time>2017-03-27T13:58:41Z</time>
      </trkpt>
      <trkpt lat="45.31977" lon="5.49243">
        <ele>276</ele>
        <time>2017-03-27T14:00:41Z</time>
      </trkpt>
      <trkpt lat="45.31985" lon="5.49248">
        <ele>277</ele>
        <time>2017-03-27T14:02:41Z</time>
      </trkpt>
      <trkpt lat="45.31993" lon="5.49251">
        <ele>278</ele>
        <time>2017-03-27T14:04:41Z</time>
      </trkpt>
      <trkpt lat="45.32011" lon="5.49255">
        <ele>281</ele>
        <time>2017-03-27T14:06:41Z</time>
      </trkpt>
      <trkpt lat="45.32025" lon="5.49258">
        <ele>283</ele>
        <time>2017-03-27T14:08:41Z</time>
      </trkpt>
      <trkpt lat="45.32034" lon="5.49261">
        <ele>284</ele>
        <time>2017-03-27T14:10:41Z</time>
      </trkpt>
      <trkpt lat="45.32043" lon="5.49264">
        <ele>286</ele>
        <time>2017-03-27T14:12:41Z</time>
      </trkpt>
      <trkpt lat="45.32052" lon="5.49269">
        <ele>286</ele>
        <time>2017-03-27T14:14:41Z</time>
      </trkpt>
      <trkpt lat="45.32057" lon="5.49273">
        <ele>286</ele>
        <time>2017-03-27T14:16:41Z</time>
      </trkpt>
      <trkpt lat="45.32065" lon="5.49279">
        <ele>286</ele>
        <time>2017-03-27T14:18:41Z</time>
      </trkpt>
      <trkpt lat="45.3207" lon="5.49285">
        <ele>286</ele>
        <time>2017-03-27T14:20:41Z</time>
      </trkpt>
      <trkpt lat="45.32091" lon="5.49307">
        <ele>282</ele>
        <time>2017-03-27T14:22:41Z</time>
      </trkpt>
      <trkpt lat="45.32097" lon="5.49314">
        <ele>280</ele>
        <time>2017-03-27T14:24:41Z</time>
      </trkpt>
      <trkpt lat="45.321" lon="5.49317">
        <ele>279</ele>
        <time>2017-03-27T14:26:41Z</time>
      </trkpt>
      <trkpt lat="45.32106" lon="5.4932">
        <ele>278</ele>
        <time>2017-03-27T14:28:41Z</time>
      </trkpt>
      <trkpt lat="45.32109" lon="5.4932">
        <ele>277</ele>
        <time>2017-03-27T14:30:41Z</time>
      </trkpt>
      <trkpt lat="45.32113" lon="5.4932">
        <ele>277</ele>
        <time>2017-03-27T14:32:41Z</time>
      </trkpt>
      <trkpt lat="45.32117" lon="5.4932">
        <ele>277</ele>
        <time>2017-03-27T14:34:41Z</time>
      </trkpt>
      <trkpt lat="45.32124" lon="5.49319">
        <ele>276</ele>
        <time>2017-03-27T14:36:41Z</time>
      </trkpt>
      <trkpt lat="45.32128" lon="5.49317">
        <ele>276</ele>
        <time>2017-03-27T14:38:41Z</time>
      </trkpt>
      <trkpt lat="45.32137" lon="5.49309">
        <ele>278</ele>
        <time>2017-03-27T14:40:41Z</time>
      </trkpt>
      <trkpt lat="45.32142" lon="5.49305">
        <ele>278</ele>
        <time>2017-03-27T14:42:41Z</time>
      </trkpt>
      <trkpt lat="45.32148" lon="5.49293">
        <ele>280</ele>
        <time>2017-03-27T14:44:41Z</time>
      </trkpt>
      <trkpt lat="45.32154" lon="5.49282">
        <ele>283</ele>
        <time>2017-03-27T14:46:41Z</time>
      </trkpt>
      <trkpt lat="45.32159" lon="5.49261">
        <ele>287</ele>
        <time>2017-03-27T14:48:41Z</time>
      </trkpt>
      <trkpt lat="45.32163" lon="5.49243">
        <ele>292</ele>
        <time>2017-03-27T14:50:41Z</time>
      </trkpt>
      <trkpt lat="45.32168" lon="5.49225">
        <ele>296</ele>
        <time>2017-03-27T14:52:41Z</time>
      </trkpt>
      <trkpt lat="45.32172" lon="5.49211">
        <ele>299</ele>
        <time>2017-03-27T14:54:41Z</time>
      </trkpt>
      <trkpt lat="45.32178" lon="5.49196">
        <ele>302</ele>
        <time>2017-03-27T14:56:41Z</time>
      </trkpt>
      <trkpt lat="45.32185" lon="5.49183">
        <ele>303</ele>
        <time>2017-03-27T14:58:41Z</time>
      </trkpt>
      <trkpt lat="45.32194" lon="5.49169">
        <ele>303</ele>
        <time>2017-03-27T15:00:41Z</time>
      </trkpt>
      <trkpt lat="45.32202" lon="5.49157">
        <ele>304</ele>
        <time>2017-03-27T15:02:41Z</time>
      </trkpt>
      <trkpt lat="45.32211" lon="5.49147">
        <ele>305</ele>
        <time>2017-03-27T15:04:41Z</time>
      </trkpt>
      <trkpt lat="45.32228" lon="5.49127">
        <ele>305</ele>
        <time>2017-03-27T15:06:41Z</time>
      </trkpt>
      <trkpt lat="45.32242" lon="5.49109">
        <ele>307</ele>
        <time>2017-03-27T15:08:41Z</time>
      </trkpt>
      <trkpt lat="45.32258" lon="5.49089">
        <ele>307</ele>
        <time>2017-03-27T15:10:41Z</time>
      </trkpt>
      <trkpt lat="45.32272" lon="5.49076">
        <ele>306</ele>
        <time>2017-03-27T15:12:41Z</time>
      </trkpt>
      <trkpt lat="45.32285" lon="5.49065">
        <ele>305</ele>
        <time>2017-03-27T15:14:41Z</time>
      </trkpt>
      <trkpt lat="45.32304" lon="5.49051">
        <ele>304</ele>
        <time>2017-03-27T15:16:41Z</time>
      </trkpt>
      <trkpt lat="45.32315" lon="5.49044">
        <ele>302</ele>
        <time>2017-03-27T15:18:41Z</time>
      </trkpt>
      <trkpt lat="45.32325" lon="5.49038">
        <ele>301</ele>
        <time>2017-03-27T15:20:41Z</time>
      </trkpt>
      <trkpt lat="45.32338" lon="5.49031">
        <ele>300</ele>
        <time>2017-03-27T15:22:41Z</time>
      </trkpt>
      <trkpt lat="45.32354" lon="5.49025">
        <ele>301</ele>
        <time>2017-03-27T15:24:41Z</time>
      </trkpt>
      <trkpt lat="45.32366" lon="5.49019">
        <ele>302</ele>
        <time>2017-03-27T15:26:41Z</time>
      </trkpt>
      <trkpt lat="45.32371" lon="5.49015">
        <ele>302</ele>
        <time>2017-03-27T15:28:41Z</time>
      </trkpt>
      <trkpt lat="45.32377" lon="5.49009">
        <ele>304</ele>
        <time>2017-03-27T15:30:41Z</time>
      </trkpt>
      <trkpt lat="45.32393" lon="5.48993">
        <ele>308</ele>
        <time>2017-03-27T15:32:41Z</time>
      </trkpt>
      <trkpt lat="45.324" lon="5.48991">
        <ele>307</ele>
        <time>2017-03-27T15:34:41Z</time>
      </trkpt>
      <trkpt lat="45.32408" lon="5.48989">
        <ele>307</ele>
        <time>2017-03-27T15:36:41Z</time>
      </trkpt>
      <trkpt lat="45.32413" lon="5.48989">
        <ele>306</ele>
        <time>2017-03-27T15:38:41Z</time>
      </trkpt>
      <trkpt lat="45.32424" lon="5.48989">
        <ele>304</ele>
        <time>2017-03-27T15:40:41Z</time>
      </trkpt>
      <trkpt lat="45.32428" lon="5.48989">
        <ele>304</ele>
        <time>2017-03-27T15:42:41Z</time>
      </trkpt>
      <trkpt lat="45.32438" lon="5.48988">
        <ele>302</ele>
        <time>2017-03-27T15:44:41Z</time>
      </trkpt>
      <trkpt lat="45.32442" lon="5.48987">
        <ele>302</ele>
        <time>2017-03-27T15:46:41Z</time>
      </trkpt>
      <trkpt lat="45.32451" lon="5.48985">
        <ele>302</ele>
        <time>2017-03-27T15:48:41Z</time>
      </trkpt>
      <trkpt lat="45.32455" lon="5.48984">
        <ele>302</ele>
        <time>2017-03-27T15:50:41Z</time>
      </trkpt>
      <trkpt lat="45.32468" lon="5.48978">
        <ele>302</ele>
        <time>2017-03-27T15:52:41Z</time>
      </trkpt>
      <trkpt lat="45.32473" lon="5.48972">
        <ele>304</ele>
        <time>2017-03-27T15:54:41Z</time>
      </trkpt>
      <trkpt lat="45.32483" lon="5.48963">
        <ele>306</ele>
        <time>2017-03-27T15:56:41Z</time>
      </trkpt>
      <trkpt lat="45.32494" lon="5.48953">
        <ele>308</ele>
        <time>2017-03-27T15:58:41Z</time>
      </trkpt>
      <trkpt lat="45.32503" lon="5.48941">
        <ele>312</ele>
        <time>2017-03-27T16:00:41Z</time>
      </trkpt>
      <trkpt lat="45.32514" lon="5.48929">
        <ele>316</ele>
        <time>2017-03-27T16:02:41Z</time>
      </trkpt>
      <trkpt lat="45.32519" lon="5.48923">
        <ele>318</ele>
        <time>2017-03-27T16:04:41Z</time>
      </trkpt>
      <trkpt lat="45.32527" lon="5.48918">
        <ele>319</ele>
        <time>2017-03-27T16:06:41Z</time>
      </trkpt>
      <trkpt lat="45.32533" lon="5.48915">
        <ele>319</ele>
        <time>2017-03-27T16:08:41Z</time>
      </trkpt>
      <trkpt lat="45.3254" lon="5.48915">
        <ele>319</ele>
        <time>2017-03-27T16:10:41Z</time>
      </trkpt>
      <trkpt lat="45.32544" lon="5.48915">
        <ele>318</ele>
        <time>2017-03-27T16:12:41Z</time>
      </trkpt>
      <trkpt lat="45.32552" lon="5.48918">
        <ele>317</ele>
        <time>2017-03-27T16:14:41Z</time>
      </trkpt>
      <trkpt lat="45.32558" lon="5.48924">
        <ele>314</ele>
        <time>2017-03-27T16:16:41Z</time>
      </trkpt>
      <trkpt lat="45.32563" lon="5.48929">
        <ele>313</ele>
        <time>2017-03-27T16:18:41Z</time>
      </trkpt>
      <trkpt lat="45.32568" lon="5.48934">
        <ele>311</ele>
        <time>2017-03-27T16:20:41Z</time>
      </trkpt>
      <trkpt lat="45.32573" lon="5.4894">
        <ele>309</ele>
        <time>2017-03-27T16:22:41Z</time>
      </trkpt>
      <trkpt lat="45.32578" lon="5.48943">
        <ele>308</ele>
        <time>2017-03-27T16:24:41Z</time>
      </trkpt>
      <trkpt lat="45.32587" lon="5.48949">
        <ele>307</ele>
        <time>2017-03-27T16:26:41Z</time>
      </trkpt>
      <trkpt lat="45.32598" lon="5.48954">
        <ele>306</ele>
        <time>2017-03-27T16:28:41Z</time>
      </trkpt>
      <trkpt lat="45.32616" lon="5.48961">
        <ele>305</ele>
        <time>2017-03-27T16:30:41Z</time>
      </trkpt>
      <trkpt lat="45.32644" lon="5.48968">
        <ele>305</ele>
        <time>2017-03-27T16:32:41Z</time>
      </trkpt>
      <trkpt lat="45.32681" lon="5.48977">
        <ele>305</ele>
        <time>2017-03-27T16:34:41Z</time>
      </trkpt>
      <trkpt lat="45.32692" lon="5.48978">
        <ele>305</ele>
        <time>2017-03-27T16:36:41Z</time>
      </trkpt>
      <trkpt lat="45.32716" lon="5.48975">
        <ele>306</ele>
        <time>2017-03-27T16:38:41Z</time>
      </trkpt>
      <trkpt lat="45.32745" lon="5.48973">
        <ele>308</ele>
        <time>2017-03-27T16:40:41Z</time>
      </trkpt>
      <trkpt lat="45.3276" lon="5.48971">
        <ele>308</ele>
        <time>2017-03-27T16:42:41Z</time>
      </trkpt>
      <trkpt lat="45.32769" lon="5.48967">
        <ele>309</ele>
        <time>2017-03-27T16:44:41Z</time>
      </trkpt>
      <trkpt lat="45.32777" lon="5.48963">
        <ele>309</ele>
        <time>2017-03-27T16:46:41Z</time>
      </trkpt>
      <trkpt lat="45.32785" lon="5.48956">
        <ele>310</ele>
        <time>2017-03-27T16:48:41Z</time>
      </trkpt>
      <trkpt lat="45.32796" lon="5.48944">
        <ele>311</ele>
        <time>2017-03-27T16:50:41Z</time>
      </trkpt>
      <trkpt lat="45.32821" lon="5.4891">
        <ele>314</ele>
        <time>2017-03-27T16:52:41Z</time>
      </trkpt>
      <trkpt lat="45.32865" lon="5.48852">
        <ele>317</ele>
        <time>2017-03-27T16:54:41Z</time>
      </trkpt>
      <trkpt lat="45.32878" lon="5.48835">
        <ele>318</ele>
        <time>2017-03-27T16:56:41Z</time>
      </trkpt>
      <trkpt lat="45.32891" lon="5.48821">
        <ele>318</ele>
        <time>2017-03-27T16:58:41Z</time>
      </trkpt>
      <trkpt lat="45.32907" lon="5.48808">
        <ele>319</ele>
        <time>2017-03-27T17:00:41Z</time>
      </trkpt>
      <trkpt lat="45.32934" lon="5.48792">
        <ele>320</ele>
        <time>2017-03-27T17:02:41Z</time>
      </trkpt>
      <trkpt lat="45.3294" lon="5.48786">
        <ele>320</ele>
        <time>2017-03-27T17:04:41Z</time>
      </trkpt>
      <trkpt lat="45.32945" lon="5.48781">
        <ele>320</ele>
        <time>2017-03-27T17:06:41Z</time>
      </trkpt>
      <trkpt lat="45.32948" lon="5.48772">
        <ele>321</ele>
        <time>2017-03-27T17:08:41Z</time>
      </trkpt>
      <trkpt lat="45.32949" lon="5.48764">
        <ele>321</ele>
        <time>2017-03-27T17:10:41Z</time>
      </trkpt>
      <trkpt lat="45.32952" lon="5.48737">
        <ele>322</ele>
        <time>2017-03-27T17:12:41Z</time>
      </trkpt>
      <trkpt lat="45.32955" lon="5.48728">
        <ele>322</ele>
        <time>2017-03-27T17:14:41Z</time>
      </trkpt>
      <trkpt lat="45.32956" lon="5.48724">
        <ele>322</ele>
        <time>2017-03-27T17:16:41Z</time>
      </trkpt>
      <trkpt lat="45.32958" lon="5.48722">
        <ele>322</ele>
        <time>2017-03-27T17:18:41Z</time>
      </trkpt>
      <trkpt lat="45.32962" lon="5.48715">
        <ele>322</ele>
        <time>2017-03-27T17:20:41Z</time>
      </trkpt>
      <trkpt lat="45.3297" lon="5.48709">
        <ele>322</ele>
        <time>2017-03-27T17:22:41Z</time>
      </trkpt>
      <trkpt lat="45.32979" lon="5.48703">
        <ele>322</ele>
        <time>2017-03-27T17:24:41Z</time>
      </trkpt>
      <trkpt lat="45.33014" lon="5.48692">
        <ele>322</ele>
        <time>2017-03-27T17:26:41Z</time>
      </trkpt>
      <trkpt lat="45.33018" lon="5.48691">
        <ele>322</ele>
        <time>2017-03-27T17:28:41Z</time>
      </trkpt>
      <trkpt lat="45.33078" lon="5.48674">
        <ele>320</ele>
        <time>2017-03-27T17:30:41Z</time>
      </trkpt>
      <trkpt lat="45.33134" lon="5.48661">
        <ele>323</ele>
        <time>2017-03-27T17:32:41Z</time>
      </trkpt>
      <trkpt lat="45.3314" lon="5.48658">
        <ele>323</ele>
        <time>2017-03-27T17:34:41Z</time>
      </trkpt>
      <trkpt lat="45.33146" lon="5.48656">
        <ele>323</ele>
        <time>2017-03-27T17:36:41Z</time>
      </trkpt>
      <trkpt lat="45.33154" lon="5.4865">
        <ele>323</ele>
        <time>2017-03-27T17:38:41Z</time>
      </trkpt>
      <trkpt lat="45.33159" lon="5.48644">
        <ele>324</ele>
        <time>2017-03-27T17:40:41Z</time>
      </trkpt>
      <trkpt lat="45.33167" lon="5.48619">
        <ele>324</ele>
        <time>2017-03-27T17:42:41Z</time>
      </trkpt>
      <trkpt lat="45.33169" lon="5.48612">
        <ele>324</ele>
        <time>2017-03-27T17:44:41Z</time>
      </trkpt>
      <trkpt lat="45.33172" lon="5.48606">
        <ele>324</ele>
        <time>2017-03-27T17:46:41Z</time>
      </trkpt>
      <trkpt lat="45.33174" lon="5.48602">
        <ele>324</ele>
        <time>2017-03-27T17:48:41Z</time>
      </trkpt>
      <trkpt lat="45.33181" lon="5.48595">
        <ele>324</ele>
        <time>2017-03-27T17:50:41Z</time>
      </trkpt>
      <trkpt lat="45.33187" lon="5.4859">
        <ele>324</ele>
        <time>2017-03-27T17:52:41Z</time>
      </trkpt>
      <trkpt lat="45.33193" lon="5.48586">
        <ele>324</ele>
        <time>2017-03-27T17:54:41Z</time>
      </trkpt>
      <trkpt lat="45.332" lon="5.48582">
        <ele>324</ele>
        <time>2017-03-27T17:56:41Z</time>
      </trkpt>
      <trkpt lat="45.33211" lon="5.48573">
        <ele>324</ele>
        <time>2017-03-27T17:58:41Z</time>
      </trkpt>
      <trkpt lat="45.3322" lon="5.48565">
        <ele>324</ele>
        <time>2017-03-27T18:00:41Z</time>
      </trkpt>
      <trkpt lat="45.33229" lon="5.48556">
        <ele>324</ele>
        <time>2017-03-27T18:02:41Z</time>
      </trkpt>
      <trkpt lat="45.33237" lon="5.48545">
        <ele>324</ele>
        <time>2017-03-27T18:04:41Z</time>
      </trkpt>
      <trkpt lat="45.33239" lon="5.48543">
        <ele>324</ele>
        <time>2017-03-27T18:06:41Z</time>
      </trkpt>
      <trkpt lat="45.33244" lon="5.48535">
        <ele>324</ele>
        <time>2017-03-27T18:08:41Z</time>
      </trkpt>
      <trkpt lat="45.33248" lon="5.48526">
        <ele>324</ele>
        <time>2017-03-27T18:10:41Z</time>
      </trkpt>
      <trkpt lat="45.33254" lon="5.48513">
        <ele>324</ele>
        <time>2017-03-27T18:12:41Z</time>
      </trkpt>
      <trkpt lat="45.33264" lon="5.48483">
        <ele>325</ele>
        <time>2017-03-27T18:14:41Z</time>
      </trkpt>
      <trkpt lat="45.33274" lon="5.48453">
        <ele>325</ele>
        <time>2017-03-27T18:16:41Z</time>
      </trkpt>
      <trkpt lat="45.33274" lon="5.48453">
        <ele>325</ele>
        <time>2017-03-27T18:18:41Z</time>
      </trkpt>
      <trkpt lat="45.3328" lon="5.48466">
        <ele>325</ele>
        <time>2017-03-27T18:20:41Z</time>
      </trkpt>
      <trkpt lat="45.33283" lon="5.48473">
        <ele>325</ele>
        <time>2017-03-27T18:22:41Z</time>
      </trkpt>
      <trkpt lat="45.33284" lon="5.48479">
        <ele>325</ele>
        <time>2017-03-27T18:24:41Z</time>
      </trkpt>
      <trkpt lat="45.33286" lon="5.48488">
        <ele>324</ele>
        <time>2017-03-27T18:26:41Z</time>
      </trkpt>
      <trkpt lat="45.33301" lon="5.48622">
        <ele>323</ele>
        <time>2017-03-27T18:28:41Z</time>
      </trkpt>
    </trkseg>
  </trk>
</gpx>